Observation data for Guadalupe Mtns Park on 08/13/2019      Previous  Date       Current Mesonet Observations  Soil Data  Daily Summary Page  Observations in Plain Language
KGU1 130500Z 31012KT 29/06 A3017 RMK A01 T02910058  RH  023%=      5-min Rain = 0
KGU1 130501Z 31012KT 29/06 A3017 RMK A01 T02920058  RH  023%=      5-min Rain = 0
KGU1 130502Z 32009KT 29/06 A3017 RMK A01 T02910059  RH  023%=      5-min Rain = 0
KGU1 130503Z 31011KT 29/06 A3017 RMK A01 T02900058  RH  024%=      5-min Rain = 0
KGU1 130504Z 31011KT 29/06 A3017 RMK A01 T02900058  RH  024%=      5-min Rain = 0
KGU1 130505Z 31011KT 29/06 A3017 RMK A01 T02910058  RH  023%=      5-min Rain = 0
KGU1 130506Z 32011KT 29/06 A3017 RMK A01 T02910058  RH  023%=      5-min Rain = 0
KGU1 130507Z 32011KT 29/06 A3017 RMK A01 T02910058  RH  023%=      5-min Rain = 0
KGU1 130508Z 32011KT 29/06 A3017 RMK A01 T02910059  RH  023%=      5-min Rain = 0
KGU1 130509Z 31012KT 29/06 A3017 RMK A01 T02920059  RH  023%=      5-min Rain = 0
KGU1 130510Z 31011KT 29/06 A3017 RMK A01 T02920058  RH  023%=      5-min Rain = 0
KGU1 130511Z 32013KT 29/06 A3017 RMK A01 T02910059  RH  024%=      5-min Rain = 0
KGU1 130512Z 32011KT 29/06 A3017 RMK A01 T02920059  RH  023%=      5-min Rain = 0
KGU1 130513Z 32012KT 29/06 A3017 RMK A01 T02920059  RH  023%=      5-min Rain = 0
KGU1 130514Z 31011KT 29/06 A3017 RMK A01 T02920059  RH  023%=      5-min Rain = 0
KGU1 130515Z 32011KT 29/06 A3017 RMK A01 T02920060  RH  024%=      5-min Rain = 0
KGU1 130516Z 31011KT 29/06 A3017 RMK A01 T02910060  RH  024%=      5-min Rain = 0
KGU1 130517Z 31010KT 29/06 A3017 RMK A01 T02910060  RH  024%=      5-min Rain = 0
KGU1 130518Z 31009KT 29/06 A3017 RMK A01 T02900060  RH  024%=      5-min Rain = 0
KGU1 130519Z 30010KT 29/06 A3017 RMK A01 T02890059  RH  024%=      5-min Rain = 0
KGU1 130520Z 30011KT 29/06 A3017 RMK A01 T02880059  RH  024%=      5-min Rain = 0
KGU1 130521Z 30011KT 29/06 A3017 RMK A01 T02870059  RH  024%=      5-min Rain = 0
KGU1 130522Z 30012KT 29/06 A3017 RMK A01 T02870059  RH  024%=      5-min Rain = 0
KGU1 130523Z 29013KT 29/06 A3017 RMK A01 T02870058  RH  024%=      5-min Rain = 0
KGU1 130524Z 30013KT 29/06 A3017 RMK A01 T02860058  RH  024%=      5-min Rain = 0
KGU1 130525Z 29013KT 29/06 A3017 RMK A01 T02860058  RH  024%=      5-min Rain = 0
KGU1 130526Z 29013KT 29/06 A3017 RMK A01 T02860058  RH  024%=      5-min Rain = 0
KGU1 130527Z 30013KT 29/06 A3017 RMK A01 T02870058  RH  024%=      5-min Rain = 0
KGU1 130528Z 29014KT 29/06 A3017 RMK A01 T02870058  RH  024%=      5-min Rain = 0
KGU1 130529Z 29014KT 29/06 A3017 RMK A01 T02860058  RH  024%=      5-min Rain = 0
KGU1 130530Z 29014KT 29/06 A3017 RMK A01 T02860057  RH  024%=      5-min Rain = 0
KGU1 130531Z 29014KT 29/06 A3017 RMK A01 T02860058  RH  024%=      5-min Rain = 0
KGU1 130532Z 29014KT 29/06 A3017 RMK A01 T02860058  RH  024%=      5-min Rain = 0
KGU1 130533Z 29014KT 29/06 A3017 RMK A01 T02860058  RH  024%=      5-min Rain = 0
KGU1 130534Z 29014KT 29/06 A3017 RMK A01 T02860058  RH  024%=      5-min Rain = 0
KGU1 130535Z 28012KT 29/06 A3017 RMK A01 T02860058  RH  024%=      5-min Rain = 0
KGU1 130536Z 29013KT 29/06 A3017 RMK A01 T02850058  RH  024%=      5-min Rain = 0
KGU1 130537Z 29013KT 28/06 A3017 RMK A01 T02840058  RH  024%=      5-min Rain = 0
KGU1 130538Z 29014KT 29/06 A3017 RMK A01 T02850058  RH  024%=      5-min Rain = 0
KGU1 130539Z 29014KT 29/06 A3017 RMK A01 T02850058  RH  024%=      5-min Rain = 0
KGU1 130540Z 29014KT 29/06 A3017 RMK A01 T02850057  RH  024%=      5-min Rain = 0
KGU1 130541Z 30015KT 29/06 A3017 RMK A01 T02850057  RH  024%=      5-min Rain = 0
KGU1 130542Z 29015KT 29/06 A3017 RMK A01 T02860057  RH  024%=      5-min Rain = 0
KGU1 130543Z 29014KT 29/06 A3017 RMK A01 T02870056  RH  024%=      5-min Rain = 0
KGU1 130544Z 29014KT 29/06 A3017 RMK A01 T02860057  RH  024%=      5-min Rain = 0
KGU1 130545Z 29012KT 29/06 A3017 RMK A01 T02860057  RH  024%=      5-min Rain = 0
KGU1 130546Z 29012KT 28/06 A3017 RMK A01 T02840057  RH  024%=      5-min Rain = 0
KGU1 130547Z 29013KT 28/06 A3017 RMK A01 T02840057  RH  024%=      5-min Rain = 0
KGU1 130548Z 29013KT 28/06 A3017 RMK A01 T02840058  RH  024%=      5-min Rain = 0
KGU1 130549Z 29011KT 28/06 A3017 RMK A01 T02830058  RH  024%=      5-min Rain = 0
KGU1 130550Z 28013KT 28/06 A3017 RMK A01 T02830058  RH  025%=      5-min Rain = 0
KGU1 130551Z 29013KT 28/06 A3016 RMK A01 T02820058  RH  025%=      5-min Rain = 0
KGU1 130552Z 28013KT 28/06 A3017 RMK A01 T02820058  RH  025%=      5-min Rain = 0
KGU1 130553Z 29012KT 28/06 A3017 RMK A01 T02810058  RH  025%=      5-min Rain = 0
KGU1 130554Z 29013KT 28/06 A3016 RMK A01 T02800057  RH  025%=      5-min Rain = 0
KGU1 130555Z 29012KT 28/06 A3016 RMK A01 T02810057  RH  025%=      5-min Rain = 0
KGU1 130556Z 28013KT 28/06 A3016 RMK A01 T02800058  RH  025%=      5-min Rain = 0
KGU1 130557Z 29013KT 28/06 A3016 RMK A01 T02800058  RH  025%=      5-min Rain = 0
KGU1 130558Z 29011KT 28/06 A3016 RMK A01 T02800058  RH  025%=      5-min Rain = 0
KGU1 130559Z 29011KT 28/06 A3016 RMK A01 T02800058  RH  025%=      5-min Rain = 0
KGU1 130600Z 29012KT 28/06 A3016 RMK A01 T02790059  RH  025%=      5-min Rain = 0
KGU1 130601Z 29012KT 28/06 A3016 RMK A01 T02790059  RH  025%=      5-min Rain = 0
KGU1 130602Z 29013KT 28/06 A3016 RMK A01 T02800060  RH  025%=      5-min Rain = 0
KGU1 130603Z 29012KT 28/06 A3016 RMK A01 T02800060  RH  025%=      5-min Rain = 0
KGU1 130604Z 29012KT 28/06 A3016 RMK A01 T02790060  RH  025%=      5-min Rain = 0
KGU1 130605Z 28014KT 28/06 A3016 RMK A01 T02780060  RH  026%=      5-min Rain = 0
KGU1 130606Z 29012KT 28/06 A3016 RMK A01 T02780060  RH  026%=      5-min Rain = 0
KGU1 130607Z 29012KT 28/06 A3016 RMK A01 T02780061  RH  026%=      5-min Rain = 0
KGU1 130608Z 29014KT 28/06 A3016 RMK A01 T02770060  RH  026%=      5-min Rain = 0
KGU1 130609Z 29012KT 28/06 A3016 RMK A01 T02770061  RH  026%=      5-min Rain = 0
KGU1 130610Z 29012KT 28/06 A3016 RMK A01 T02780061  RH  026%=      5-min Rain = 0
KGU1 130611Z 28011KT 28/06 A3016 RMK A01 T02780061  RH  026%=      5-min Rain = 0
KGU1 130612Z 28012KT 28/06 A3016 RMK A01 T02770061  RH  026%=      5-min Rain = 0
KGU1 130613Z 28010KT 28/06 A3016 RMK A01 T02770061  RH  026%=      5-min Rain = 0
KGU1 130614Z 28012KT 28/06 A3016 RMK A01 T02760061  RH  026%=      5-min Rain = 0
KGU1 130615Z 29011KT 28/06 A3016 RMK A01 T02760061  RH  026%=      5-min Rain = 0
KGU1 130616Z 29011KT 28/06 A3016 RMK A01 T02760061  RH  026%=      5-min Rain = 0
KGU1 130617Z 29009KT 28/06 A3016 RMK A01 T02760061  RH  026%=      5-min Rain = 0
KGU1 130618Z 29010KT 28/06 A3016 RMK A01 T02750061  RH  026%=      5-min Rain = 0
KGU1 130619Z 29011KT 28/06 A3016 RMK A01 T02750062  RH  026%=      5-min Rain = 0
KGU1 130620Z 29009KT 28/06 A3016 RMK A01 T02750062  RH  026%=      5-min Rain = 0
KGU1 130621Z 30009KT 28/06 A3016 RMK A01 T02750062  RH  026%=      5-min Rain = 0
KGU1 130622Z 29009KT 28/06 A3016 RMK A01 T02750062  RH  026%=      5-min Rain = 0
KGU1 130623Z 29012KT 28/06 A3016 RMK A01 T02750062  RH  027%=      5-min Rain = 0
KGU1 130624Z 30012KT 28/06 A3016 RMK A01 T02760062  RH  026%=      5-min Rain = 0
KGU1 130625Z 30012KT 28/06 A3016 RMK A01 T02770063  RH  026%=      5-min Rain = 0
KGU1 130626Z 30011KT 28/06 A3016 RMK A01 T02760062  RH  026%=      5-min Rain = 0
KGU1 130627Z 31008KT 27/06 A3016 RMK A01 T02740063  RH  027%=      5-min Rain = 0
KGU1 130628Z 32008KT 27/06 A3016 RMK A01 T02730063  RH  027%=      5-min Rain = 0
KGU1 130629Z 32008KT 27/06 A3016 RMK A01 T02710063  RH  027%=      5-min Rain = 0
KGU1 130630Z 33008KT 27/06 A3016 RMK A01 T02710063  RH  027%=      5-min Rain = 0
KGU1 130631Z 32007KT 27/06 A3016 RMK A01 T02710063  RH  027%=      5-min Rain = 0
KGU1 130632Z 30008KT 27/06 A3016 RMK A01 T02710063  RH  027%=      5-min Rain = 0
KGU1 130633Z 30008KT 27/06 A3016 RMK A01 T02710063  RH  027%=      5-min Rain = 0
KGU1 130634Z 29008KT 27/06 A3016 RMK A01 T02720063  RH  027%=      5-min Rain = 0
KGU1 130635Z 29009KT 27/06 A3016 RMK A01 T02720063  RH  027%=      5-min Rain = 0
KGU1 130636Z 29009KT 27/06 A3016 RMK A01 T02720063  RH  027%=      5-min Rain = 0
KGU1 130637Z 29008KT 27/06 A3016 RMK A01 T02730063  RH  027%=      5-min Rain = 0
KGU1 130638Z 29009KT 27/06 A3016 RMK A01 T02730064  RH  027%=      5-min Rain = 0
KGU1 130639Z 29010KT 27/06 A3016 RMK A01 T02740064  RH  027%=      5-min Rain = 0
KGU1 130640Z 30010KT 28/06 A3016 RMK A01 T02750064  RH  027%=      5-min Rain = 0
KGU1 130641Z 30009KT 28/06 A3016 RMK A01 T02750064  RH  027%=      5-min Rain = 0
KGU1 130642Z 30009KT 28/06 A3016 RMK A01 T02750064  RH  027%=      5-min Rain = 0
KGU1 130643Z 30010KT 28/06 A3016 RMK A01 T02750064  RH  027%=      5-min Rain = 0
KGU1 130644Z 30010KT 28/06 A3016 RMK A01 T02750064  RH  027%=      5-min Rain = 0
KGU1 130645Z 31007KT 28/07 A3016 RMK A01 T02750065  RH  027%=      5-min Rain = 0
KGU1 130646Z 30010KT 27/07 A3016 RMK A01 T02730065  RH  027%=      5-min Rain = 0
KGU1 130647Z 31009KT 27/07 A3016 RMK A01 T02730065  RH  027%=      5-min Rain = 0
KGU1 130648Z 30009KT 27/07 A3016 RMK A01 T02740065  RH  027%=      5-min Rain = 0
KGU1 130649Z 30008KT 27/07 A3016 RMK A01 T02740065  RH  027%=      5-min Rain = 0
KGU1 130650Z 30010KT 27/07 A3016 RMK A01 T02730065  RH  027%=      5-min Rain = 0
KGU1 130651Z 30009KT 27/07 A3016 RMK A01 T02740065  RH  027%=      5-min Rain = 0
KGU1 130652Z 29008KT 27/07 A3016 RMK A01 T02740066  RH  027%=      5-min Rain = 0
KGU1 130653Z 30009KT 27/07 A3016 RMK A01 T02730065  RH  027%=      5-min Rain = 0
KGU1 130654Z 31007KT 27/07 A3016 RMK A01 T02730066  RH  027%=      5-min Rain = 0
KGU1 130655Z 33006KT 27/07 A3016 RMK A01 T02730067  RH  028%=      5-min Rain = 0
KGU1 130656Z 33008G13KT 27/07 A3016 RMK A01 T02730067  RH  028%=      5-min Rain = 0
KGU1 130657Z 33011KT 28/07 A3016 RMK A01 T02760067  RH  027%=      5-min Rain = 0
KGU1 130658Z 33010KT 28/07 A3016 RMK A01 T02790066  RH  027%=      5-min Rain = 0
KGU1 130659Z 33011KT 28/07 A3016 RMK A01 T02810066  RH  026%=      5-min Rain = 0
KGU1 130700Z 33010KT 28/07 A3016 RMK A01 T02830066  RH  026%=      5-min Rain = 0
KGU1 130701Z 33011KT 28/07 A3016 RMK A01 T02840067  RH  026%=      5-min Rain = 0
KGU1 130702Z 33010KT 28/07 A3016 RMK A01 T02840066  RH  026%=      5-min Rain = 0
KGU1 130703Z 33010KT 28/07 A3016 RMK A01 T02840066  RH  026%=      5-min Rain = 0
KGU1 130704Z 33009KT 28/07 A3016 RMK A01 T02830066  RH  026%=      5-min Rain = 0
KGU1 130705Z 33010KT 28/07 A3016 RMK A01 T02820066  RH  026%=      5-min Rain = 0
KGU1 130706Z 33011KT 28/07 A3016 RMK A01 T02820065  RH  026%=      5-min Rain = 0
KGU1 130707Z 33010KT 28/07 A3016 RMK A01 T02820065  RH  026%=      5-min Rain = 0
KGU1 130708Z 33009KT 28/07 A3016 RMK A01 T02820065  RH  026%=      5-min Rain = 0
KGU1 130709Z 33008KT 28/07 A3016 RMK A01 T02820065  RH  026%=      5-min Rain = 0
KGU1 130710Z 33009KT 28/07 A3016 RMK A01 T02820065  RH  026%=      5-min Rain = 0
KGU1 130711Z 33009KT 28/07 A3016 RMK A01 T02810065  RH  026%=      5-min Rain = 0
KGU1 130712Z 33009KT 28/06 A3016 RMK A01 T02800064  RH  026%=      5-min Rain = 0
KGU1 130713Z 33010KT 28/06 A3016 RMK A01 T02800064  RH  026%=      5-min Rain = 0
KGU1 130714Z 33010KT 28/07 A3016 RMK A01 T02800065  RH  026%=      5-min Rain = 0
KGU1 130715Z 33011KT 28/06 A3016 RMK A01 T02800064  RH  026%=      5-min Rain = 0
KGU1 130716Z 33012KT 28/07 A3016 RMK A01 T02800065  RH  026%=      5-min Rain = 0
KGU1 130717Z 33012KT 28/06 A3016 RMK A01 T02810064  RH  026%=      5-min Rain = 0
KGU1 130718Z 33010KT 28/07 A3016 RMK A01 T02810065  RH  026%=      5-min Rain = 0
KGU1 130719Z 34011KT 28/07 A3016 RMK A01 T02810065  RH  026%=      5-min Rain = 0
KGU1 130720Z 33011KT 28/07 A3016 RMK A01 T02800065  RH  026%=      5-min Rain = 0
KGU1 130721Z 33011KT 28/07 A3016 RMK A01 T02800065  RH  026%=      5-min Rain = 0
KGU1 130722Z 33011KT 28/07 A3016 RMK A01 T02800065  RH  026%=      5-min Rain = 0
KGU1 130723Z 33012KT 28/07 A3016 RMK A01 T02790065  RH  026%=      5-min Rain = 0
KGU1 130724Z 34012KT 28/07 A3016 RMK A01 T02800065  RH  026%=      5-min Rain = 0
KGU1 130725Z 34012KT 28/07 A3015 RMK A01 T02800065  RH  026%=      5-min Rain = 0
KGU1 130726Z 33011KT 28/07 A3015 RMK A01 T02800065  RH  026%=      5-min Rain = 0
KGU1 130727Z 33011KT 28/07 A3015 RMK A01 T02800065  RH  026%=      5-min Rain = 0
KGU1 130728Z 33013KT 28/07 A3015 RMK A01 T02800065  RH  026%=      5-min Rain = 0
KGU1 130729Z 33012KT 28/06 A3016 RMK A01 T02810064  RH  026%=      5-min Rain = 0
KGU1 130730Z 33012KT 28/06 A3015 RMK A01 T02810064  RH  026%=      5-min Rain = 0
KGU1 130731Z 33012KT 28/07 A3015 RMK A01 T02790065  RH  026%=      5-min Rain = 0
KGU1 130732Z 34012KT 28/07 A3015 RMK A01 T02790065  RH  026%=      5-min Rain = 0
KGU1 130733Z 33012KT 28/07 A3015 RMK A01 T02790065  RH  026%=      5-min Rain = 0
KGU1 130734Z 33012KT 28/07 A3015 RMK A01 T02790065  RH  026%=      5-min Rain = 0
KGU1 130735Z 33011KT 28/07 A3015 RMK A01 T02790065  RH  026%=      5-min Rain = 0
KGU1 130736Z 33012KT 28/06 A3015 RMK A01 T02790064  RH  026%=      5-min Rain = 0
KGU1 130737Z 33011KT 28/07 A3015 RMK A01 T02800065  RH  026%=      5-min Rain = 0
KGU1 130738Z 33012KT 28/06 A3015 RMK A01 T02800064  RH  026%=      5-min Rain = 0
KGU1 130739Z 33010KT 28/06 A3015 RMK A01 T02810064  RH  026%=      5-min Rain = 0
KGU1 130740Z 33011KT 28/06 A3015 RMK A01 T02810064  RH  026%=      5-min Rain = 0
KGU1 130741Z 33011KT 28/06 A3015 RMK A01 T02810064  RH  026%=      5-min Rain = 0
KGU1 130742Z 33011KT 28/06 A3015 RMK A01 T02820064  RH  026%=      5-min Rain = 0
KGU1 130743Z 33011KT 28/06 A3015 RMK A01 T02820064  RH  026%=      5-min Rain = 0
KGU1 130744Z 33009KT 28/06 A3015 RMK A01 T02820064  RH  026%=      5-min Rain = 0
KGU1 130745Z 33009KT 28/07 A3015 RMK A01 T02820065  RH  026%=      5-min Rain = 0
KGU1 130746Z 33010KT 28/06 A3015 RMK A01 T02810064  RH  026%=      5-min Rain = 0
KGU1 130747Z 33011KT 28/07 A3015 RMK A01 T02820065  RH  026%=      5-min Rain = 0
KGU1 130748Z 33010KT 28/07 A3015 RMK A01 T02820065  RH  026%=      5-min Rain = 0
KGU1 130749Z 33010KT 28/06 A3015 RMK A01 T02820064  RH  026%=      5-min Rain = 0
KGU1 130750Z 33010KT 28/06 A3015 RMK A01 T02820064  RH  026%=      5-min Rain = 0
KGU1 130751Z 33010KT 28/06 A3015 RMK A01 T02820064  RH  026%=      5-min Rain = 0
KGU1 130752Z 33010KT 28/06 A3015 RMK A01 T02820064  RH  026%=      5-min Rain = 0
KGU1 130753Z 33010KT 28/06 A3015 RMK A01 T02820064  RH  026%=      5-min Rain = 0
KGU1 130754Z 33009KT 28/06 A3015 RMK A01 T02820064  RH  026%=      5-min Rain = 0
KGU1 130755Z 34011KT 28/06 A3015 RMK A01 T02810064  RH  026%=      5-min Rain = 0
KGU1 130756Z 33011KT 28/06 A3015 RMK A01 T02810064  RH  026%=      5-min Rain = 0
KGU1 130757Z 34012KT 28/07 A3015 RMK A01 T02820065  RH  026%=      5-min Rain = 0
KGU1 130758Z 34014KT 28/07 A3015 RMK A01 T02820065  RH  026%=      5-min Rain = 0
KGU1 130759Z 35015G21KT 28/07 A3015 RMK A01 T02830067  RH  026%=      5-min Rain = 0
KGU1 130800Z 34016KT 29/07 A3015 RMK A01 T02850068  RH  026%=      5-min Rain = 0
KGU1 130801Z 34013KT 29/07 A3015 RMK A01 T02860068  RH  026%=      5-min Rain = 0
KGU1 130802Z 34016KT 29/07 A3015 RMK A01 T02850067  RH  026%=      5-min Rain = 0
KGU1 130803Z 34014KT 29/07 A3015 RMK A01 T02850067  RH  026%=      5-min Rain = 0
KGU1 130804Z 33014KT 28/07 A3015 RMK A01 T02830067  RH  026%=      5-min Rain = 0
KGU1 130805Z 33016KT 28/07 A3015 RMK A01 T02820067  RH  026%=      5-min Rain = 0
KGU1 130806Z 33015KT 28/07 A3015 RMK A01 T02820067  RH  026%=      5-min Rain = 0
KGU1 130807Z 33016KT 28/07 A3015 RMK A01 T02820068  RH  027%=      5-min Rain = 0
KGU1 130808Z 33015KT 28/07 A3015 RMK A01 T02820068  RH  027%=      5-min Rain = 0
KGU1 130809Z 33014KT 28/07 A3015 RMK A01 T02820068  RH  027%=      5-min Rain = 0
KGU1 130810Z 33011KT 28/07 A3015 RMK A01 T02820069  RH  027%=      5-min Rain = 0
KGU1 130811Z 33013KT 28/07 A3015 RMK A01 T02810069  RH  027%=      5-min Rain = 0
KGU1 130812Z 33016KT 28/07 A3015 RMK A01 T02810069  RH  027%=      5-min Rain = 0
KGU1 130813Z 33015KT 28/07 A3015 RMK A01 T02820069  RH  027%=      5-min Rain = 0
KGU1 130814Z 33014KT 28/07 A3015 RMK A01 T02820070  RH  027%=      5-min Rain = 0
KGU1 130815Z 33014KT 28/07 A3014 RMK A01 T02820070  RH  027%=      5-min Rain = 0
KGU1 130816Z 33014KT 28/07 A3014 RMK A01 T02820070  RH  027%=      5-min Rain = 0
KGU1 130817Z 33013KT 28/07 A3014 RMK A01 T02820071  RH  027%=      5-min Rain = 0
KGU1 130818Z 33012KT 28/07 A3014 RMK A01 T02810071  RH  027%=      5-min Rain = 0
KGU1 130819Z 33014KT 28/07 A3014 RMK A01 T02800071  RH  027%=      5-min Rain = 0
KGU1 130820Z 34015G20KT 28/07 A3014 RMK A01 T02800071  RH  027%=      5-min Rain = 0
KGU1 130821Z 34017KT 28/07 A3015 RMK A01 T02790071  RH  028%=      5-min Rain = 0
KGU1 130822Z 33019KT 28/07 A3015 RMK A01 T02790072  RH  028%=      5-min Rain = 0
KGU1 130823Z 34016KT 28/07 A3015 RMK A01 T02790073  RH  028%=      5-min Rain = 0
KGU1 130824Z 34014G19KT 28/07 A3015 RMK A01 T02770074  RH  028%=      5-min Rain = 0
KGU1 130825Z 34018KT 28/07 A3015 RMK A01 T02760074  RH  028%=      5-min Rain = 0
KGU1 130826Z 34016KT 28/07 A3015 RMK A01 T02760074  RH  029%=      5-min Rain = 0
KGU1 130827Z 34017KT 28/08 A3015 RMK A01 T02760075  RH  029%=      5-min Rain = 0
KGU1 130828Z 33017KT 28/08 A3015 RMK A01 T02770076  RH  029%=      5-min Rain = 0
KGU1 130829Z 33016KT 28/08 A3015 RMK A01 T02770076  RH  029%=      5-min Rain = 0
KGU1 130830Z 33017KT 28/08 A3015 RMK A01 T02760077  RH  029%=      5-min Rain = 0
KGU1 130831Z 33016KT 28/08 A3015 RMK A01 T02770077  RH  029%=      5-min Rain = 0
KGU1 130832Z 34015KT 28/08 A3015 RMK A01 T02760077  RH  029%=      5-min Rain = 0
KGU1 130833Z 33016KT 28/08 A3015 RMK A01 T02770077  RH  029%=      5-min Rain = 0
KGU1 130834Z 33016KT 28/08 A3015 RMK A01 T02770077  RH  029%=      5-min Rain = 0
KGU1 130835Z 33015KT 28/08 A3015 RMK A01 T02770077  RH  029%=      5-min Rain = 0
KGU1 130836Z 34016KT 28/08 A3015 RMK A01 T02760077  RH  029%=      5-min Rain = 0
KGU1 130837Z 34016KT 28/08 A3015 RMK A01 T02760078  RH  029%=      5-min Rain = 0
KGU1 130838Z 34018KT 28/08 A3015 RMK A01 T02760077  RH  029%=      5-min Rain = 0
KGU1 130839Z 33017KT 28/08 A3015 RMK A01 T02760077  RH  029%=      5-min Rain = 0
KGU1 130840Z 33016KT 28/08 A3014 RMK A01 T02760078  RH  029%=      5-min Rain = 0
KGU1 130841Z 33017KT 28/08 A3015 RMK A01 T02760078  RH  029%=      5-min Rain = 0
KGU1 130842Z 33016KT 28/08 A3015 RMK A01 T02760078  RH  029%=      5-min Rain = 0
KGU1 130843Z 33016KT 28/08 A3015 RMK A01 T02750077  RH  029%=      5-min Rain = 0
KGU1 130844Z 34015G20KT 27/08 A3015 RMK A01 T02740077  RH  030%=      5-min Rain = 0
KGU1 130845Z 34013KT 27/08 A3015 RMK A01 T02740077  RH  030%=      5-min Rain = 0
KGU1 130846Z 34014KT 28/08 A3015 RMK A01 T02750078  RH  030%=      5-min Rain = 0
KGU1 130847Z 34014KT 28/08 A3014 RMK A01 T02750077  RH  030%=      5-min Rain = 0
KGU1 130848Z 34016KT 27/08 A3014 RMK A01 T02740077  RH  030%=      5-min Rain = 0
KGU1 130849Z 34015KT 27/08 A3015 RMK A01 T02740077  RH  030%=      5-min Rain = 0
KGU1 130850Z 34014KT 28/08 A3015 RMK A01 T02750077  RH  029%=      5-min Rain = 0
KGU1 130851Z 33014KT 28/08 A3015 RMK A01 T02760077  RH  029%=      5-min Rain = 0
KGU1 130852Z 33012KT 28/08 A3015 RMK A01 T02760077  RH  029%=      5-min Rain = 0
KGU1 130853Z 34011KT 28/08 A3015 RMK A01 T02760077  RH  029%=      5-min Rain = 0
KGU1 130854Z 34009KT 28/08 A3015 RMK A01 T02760077  RH  029%=      5-min Rain = 0
KGU1 130855Z 36006KT 28/08 A3015 RMK A01 T02760077  RH  029%=      5-min Rain = 0
KGU1 130856Z 11004KT 28/08 A3015 RMK A01 T02750076  RH  029%=      5-min Rain = 0
KGU1 130857Z 11005KT 27/07 A3015 RMK A01 T02720074  RH  029%=      5-min Rain = 0
KGU1 130858Z 16006KT 27/07 A3015 RMK A01 T02680074  RH  030%=      5-min Rain = 0
KGU1 130859Z 15005KT 27/08 A3015 RMK A01 T02690075  RH  030%=      5-min Rain = 0
KGU1 130900Z 14004KT 27/07 A3015 RMK A01 T02670074  RH  030%=      5-min Rain = 0
KGU1 130901Z 13004KT 27/07 A3015 RMK A01 T02660074  RH  030%=      5-min Rain = 0
KGU1 130902Z 14005KT 27/07 A3015 RMK A01 T02660074  RH  030%=      5-min Rain = 0
KGU1 130903Z 14005KT 27/07 A3015 RMK A01 T02650073  RH  030%=      5-min Rain = 0
KGU1 130904Z 14004KT 26/07 A3015 RMK A01 T02630074  RH  031%=      5-min Rain = 0
KGU1 130905Z 15004KT 26/07 A3015 RMK A01 T02620073  RH  031%=      5-min Rain = 0
KGU1 130906Z 14003KT 26/07 A3015 RMK A01 T02610074  RH  031%=      5-min Rain = 0
KGU1 130907Z 13002KT 26/07 A3015 RMK A01 T02610074  RH  031%=      5-min Rain = 0
KGU1 130908Z 12001KT 26/08 A3015 RMK A01 T02630075  RH  031%=      5-min Rain = 0
KGU1 130909Z 12000KT 26/07 A3015 RMK A01 T02640074  RH  031%=      5-min Rain = 0
KGU1 130910Z 00000KT 26/07 A3015 RMK A01 T02640074  RH  031%=      5-min Rain = 0
KGU1 130911Z 00000KT 26/07 A3015 RMK A01 T02640074  RH  031%=      5-min Rain = 0
KGU1 130912Z 00000KT 27/07 A3015 RMK A01 T02650074  RH  031%=      5-min Rain = 0
KGU1 130913Z 00000KT 26/07 A3015 RMK A01 T02640074  RH  031%=      5-min Rain = 0
KGU1 130914Z 03001KT 26/07 A3016 RMK A01 T02640074  RH  031%=      5-min Rain = 0
KGU1 130915Z 02002KT 26/07 A3016 RMK A01 T02630074  RH  031%=      5-min Rain = 0
KGU1 130916Z 02002KT 26/07 A3016 RMK A01 T02610074  RH  031%=      5-min Rain = 0
KGU1 130917Z 02001KT 26/07 A3016 RMK A01 T02590074  RH  032%=      5-min Rain = 0
KGU1 130918Z 02001KT 26/07 A3016 RMK A01 T02580074  RH  032%=      5-min Rain = 0
KGU1 130919Z 02000KT 26/07 A3016 RMK A01 T02570074  RH  032%=      5-min Rain = 0
KGU1 130920Z 02001KT 26/07 A3016 RMK A01 T02560073  RH  032%=      5-min Rain = 0
KGU1 130921Z 02001KT 26/07 A3016 RMK A01 T02560073  RH  032%=      5-min Rain = 0
KGU1 130922Z 02001KT 26/07 A3016 RMK A01 T02550073  RH  032%=      5-min Rain = 0
KGU1 130923Z 01003KT 25/07 A3016 RMK A01 T02540073  RH  032%=      5-min Rain = 0
KGU1 130924Z 01003KT 25/07 A3016 RMK A01 T02540073  RH  032%=      5-min Rain = 0
KGU1 130925Z 01004KT 25/07 A3016 RMK A01 T02520073  RH  033%=      5-min Rain = 0
KGU1 130926Z 01004KT 25/07 A3016 RMK A01 T02510073  RH  033%=      5-min Rain = 0
KGU1 130927Z 01004KT 25/07 A3016 RMK A01 T02490073  RH  033%=      5-min Rain = 0
KGU1 130928Z 36004KT 25/07 A3016 RMK A01 T02480073  RH  033%=      5-min Rain = 0
KGU1 130929Z 35004KT 25/07 A3016 RMK A01 T02480073  RH  033%=      5-min Rain = 0
KGU1 130930Z 35004KT 25/07 A3016 RMK A01 T02500073  RH  033%=      5-min Rain = 0
KGU1 130931Z 36005KT 25/07 A3016 RMK A01 T02500073  RH  033%=      5-min Rain = 0
KGU1 130932Z 36004KT 25/07 A3016 RMK A01 T02510073  RH  033%=      5-min Rain = 0
KGU1 130933Z 35003KT 25/07 A3016 RMK A01 T02520073  RH  033%=      5-min Rain = 0
KGU1 130934Z 35003KT 25/07 A3016 RMK A01 T02530073  RH  032%=      5-min Rain = 0
KGU1 130935Z 35002KT 26/07 A3016 RMK A01 T02550073  RH  032%=      5-min Rain = 0
KGU1 130936Z 34003KT 26/07 A3016 RMK A01 T02560073  RH  032%=      5-min Rain = 0
KGU1 130937Z 33004KT 26/07 A3016 RMK A01 T02560073  RH  032%=      5-min Rain = 0
KGU1 130938Z 33005KT 26/07 A3016 RMK A01 T02550073  RH  032%=      5-min Rain = 0
KGU1 130939Z 33005KT 25/07 A3016 RMK A01 T02540073  RH  032%=      5-min Rain = 0
KGU1 130940Z 33005KT 25/07 A3016 RMK A01 T02530073  RH  032%=      5-min Rain = 0
KGU1 130941Z 34006KT 25/07 A3016 RMK A01 T02530073  RH  032%=      5-min Rain = 0
KGU1 130942Z 33007KT 25/07 A3016 RMK A01 T02540073  RH  032%=      5-min Rain = 0
KGU1 130943Z 33006KT 26/07 A3016 RMK A01 T02560073  RH  032%=      5-min Rain = 0
KGU1 130944Z 34005KT 26/07 A3016 RMK A01 T02560073  RH  032%=      5-min Rain = 0
KGU1 130945Z 33005KT 26/07 A3016 RMK A01 T02560073  RH  032%=      5-min Rain = 0
KGU1 130946Z 33006KT 26/07 A3016 RMK A01 T02550073  RH  032%=      5-min Rain = 0
KGU1 130947Z 32006KT 25/07 A3016 RMK A01 T02540073  RH  032%=      5-min Rain = 0
KGU1 130948Z 33006KT 25/07 A3016 RMK A01 T02530073  RH  032%=      5-min Rain = 0
KGU1 130949Z 31006KT 25/07 A3016 RMK A01 T02530073  RH  033%=      5-min Rain = 0
KGU1 130950Z 29007KT 25/07 A3016 RMK A01 T02510072  RH  033%=      5-min Rain = 0
KGU1 130951Z 29006KT 25/07 A3016 RMK A01 T02490073  RH  033%=      5-min Rain = 0
KGU1 130952Z 29006KT 25/07 A3016 RMK A01 T02490073  RH  033%=      5-min Rain = 0
KGU1 130953Z 29006KT 25/07 A3016 RMK A01 T02520073  RH  033%=      5-min Rain = 0
KGU1 130954Z 29006KT 25/07 A3016 RMK A01 T02510073  RH  033%=      5-min Rain = 0
KGU1 130955Z 29007KT 25/07 A3016 RMK A01 T02500074  RH  033%=      5-min Rain = 0
KGU1 130956Z 29007KT 25/07 A3016 RMK A01 T02490074  RH  034%=      5-min Rain = 0
KGU1 130957Z 30008KT 25/07 A3016 RMK A01 T02480074  RH  034%=      5-min Rain = 0
KGU1 130958Z 30008KT 25/07 A3016 RMK A01 T02490074  RH  034%=      5-min Rain = 0
KGU1 130959Z 30008KT 25/07 A3016 RMK A01 T02510074  RH  033%=      5-min Rain = 0
KGU1 131000Z 30008KT 25/07 A3016 RMK A01 T02530074  RH  033%=      5-min Rain = 0
KGU1 131001Z 30008KT 25/07 A3016 RMK A01 T02530074  RH  033%=      5-min Rain = 0
KGU1 131002Z 30008KT 25/08 A3016 RMK A01 T02530075  RH  033%=      5-min Rain = 0
KGU1 131003Z 30008KT 25/08 A3016 RMK A01 T02530075  RH  033%=      5-min Rain = 0
KGU1 131004Z 30008KT 25/08 A3016 RMK A01 T02540075  RH  033%=      5-min Rain = 0
KGU1 131005Z 31008KT 25/08 A3016 RMK A01 T02540075  RH  033%=      5-min Rain = 0
KGU1 131006Z 31007KT 25/07 A3016 RMK A01 T02540074  RH  033%=      5-min Rain = 0
KGU1 131007Z 31007KT 25/07 A3016 RMK A01 T02540074  RH  033%=      5-min Rain = 0
KGU1 131008Z 30008KT 25/07 A3016 RMK A01 T02540074  RH  033%=      5-min Rain = 0
KGU1 131009Z 30008KT 26/08 A3016 RMK A01 T02550075  RH  033%=      5-min Rain = 0
KGU1 131010Z 30009KT 26/08 A3016 RMK A01 T02550075  RH  033%=      5-min Rain = 0
KGU1 131011Z 30010KT 26/08 A3016 RMK A01 T02550075  RH  033%=      5-min Rain = 0
KGU1 131012Z 30009KT 25/08 A3016 RMK A01 T02540075  RH  033%=      5-min Rain = 0
KGU1 131013Z 30009KT 25/08 A3016 RMK A01 T02540076  RH  033%=      5-min Rain = 0
KGU1 131014Z 30010KT 25/08 A3016 RMK A01 T02540076  RH  033%=      5-min Rain = 0
KGU1 131015Z 30011KT 25/08 A3016 RMK A01 T02540076  RH  033%=      5-min Rain = 0
KGU1 131016Z 31010KT 26/08 A3016 RMK A01 T02550077  RH  033%=      5-min Rain = 0
KGU1 131017Z 31010KT 26/08 A3016 RMK A01 T02550077  RH  033%=      5-min Rain = 0
KGU1 131018Z 32010KT 26/08 A3016 RMK A01 T02560077  RH  033%=      5-min Rain = 0
KGU1 131019Z 31009KT 26/08 A3016 RMK A01 T02580077  RH  032%=      5-min Rain = 0
KGU1 131020Z 30010KT 26/08 A3016 RMK A01 T02590077  RH  032%=      5-min Rain = 0
KGU1 131021Z 31010KT 26/08 A3016 RMK A01 T02600077  RH  032%=      5-min Rain = 0
KGU1 131022Z 32008KT 26/08 A3016 RMK A01 T02600077  RH  032%=      5-min Rain = 0
KGU1 131023Z 32007KT 26/08 A3016 RMK A01 T02600078  RH  032%=      5-min Rain = 0
KGU1 131024Z 31008KT 26/08 A3016 RMK A01 T02600078  RH  032%=      5-min Rain = 0
KGU1 131025Z 30009KT 26/08 A3016 RMK A01 T02590078  RH  032%=      5-min Rain = 0
KGU1 131026Z 31009KT 26/08 A3016 RMK A01 T02620078  RH  032%=      5-min Rain = 0
KGU1 131027Z 31007KT 26/08 A3016 RMK A01 T02640078  RH  032%=      5-min Rain = 0
KGU1 131028Z 33006KT 27/08 A3016 RMK A01 T02650078  RH  031%=      5-min Rain = 0
KGU1 131029Z 32005KT 27/08 A3016 RMK A01 T02660078  RH  031%=      5-min Rain = 0
KGU1 131030Z 32005KT 26/08 A3016 RMK A01 T02640078  RH  032%=      5-min Rain = 0
KGU1 131031Z 33005KT 26/08 A3016 RMK A01 T02640078  RH  032%=      5-min Rain = 0
KGU1 131032Z 35004KT 27/08 A3016 RMK A01 T02660078  RH  031%=      5-min Rain = 0
KGU1 131033Z 32005KT 27/08 A3016 RMK A01 T02660079  RH  031%=      5-min Rain = 0
KGU1 131034Z 33006KT 26/08 A3016 RMK A01 T02640079  RH  032%=      5-min Rain = 0
KGU1 131035Z 31006KT 26/08 A3016 RMK A01 T02630078  RH  032%=      5-min Rain = 0
KGU1 131036Z 31006KT 26/08 A3016 RMK A01 T02620079  RH  032%=      5-min Rain = 0
KGU1 131037Z 31006KT 26/08 A3016 RMK A01 T02620078  RH  032%=      5-min Rain = 0
KGU1 131038Z 31006KT 26/08 A3016 RMK A01 T02620079  RH  032%=      5-min Rain = 0
KGU1 131039Z 32007KT 26/08 A3016 RMK A01 T02610079  RH  032%=      5-min Rain = 0
KGU1 131040Z 33004KT 26/08 A3016 RMK A01 T02620079  RH  032%=      5-min Rain = 0
KGU1 131041Z 33004KT 26/08 A3016 RMK A01 T02630079  RH  032%=      5-min Rain = 0
KGU1 131042Z 32005KT 26/08 A3016 RMK A01 T02620079  RH  032%=      5-min Rain = 0
KGU1 131043Z 29006KT 26/08 A3016 RMK A01 T02610080  RH  032%=      5-min Rain = 0
KGU1 131044Z 30010KT 26/08 A3016 RMK A01 T02610080  RH  033%=      5-min Rain = 0
KGU1 131045Z 30009KT 26/08 A3016 RMK A01 T02630080  RH  032%=      5-min Rain = 0
KGU1 131046Z 30007KT 26/08 A3017 RMK A01 T02640080  RH  032%=      5-min Rain = 0
KGU1 131047Z 31004KT 27/08 A3017 RMK A01 T02660080  RH  032%=      5-min Rain = 0
KGU1 131048Z 29006KT 27/08 A3017 RMK A01 T02660080  RH  032%=      5-min Rain = 0
KGU1 131049Z 29007KT 27/08 A3017 RMK A01 T02650081  RH  032%=      5-min Rain = 0
KGU1 131050Z 29006KT 26/08 A3017 RMK A01 T02640081  RH  032%=      5-min Rain = 0
KGU1 131051Z 30007KT 26/08 A3017 RMK A01 T02630080  RH  032%=      5-min Rain = 0
KGU1 131052Z 30007KT 26/08 A3017 RMK A01 T02630080  RH  032%=      5-min Rain = 0
KGU1 131053Z 30006KT 26/08 A3017 RMK A01 T02630080  RH  032%=      5-min Rain = 0
KGU1 131054Z 31007KT 26/08 A3017 RMK A01 T02630080  RH  032%=      5-min Rain = 0
KGU1 131055Z 32007KT 26/08 A3017 RMK A01 T02630081  RH  032%=      5-min Rain = 0
KGU1 131056Z 32005KT 26/08 A3017 RMK A01 T02630081  RH  032%=      5-min Rain = 0
KGU1 131057Z 33005KT 26/08 A3017 RMK A01 T02630081  RH  033%=      5-min Rain = 0
KGU1 131058Z 31004KT 26/08 A3017 RMK A01 T02620082  RH  033%=      5-min Rain = 0
KGU1 131059Z 30004KT 26/08 A3017 RMK A01 T02600082  RH  033%=      5-min Rain = 0
KGU1 131100Z 29004KT 26/08 A3017 RMK A01 T02590082  RH  033%=      5-min Rain = 0
KGU1 131101Z 30006KT 26/08 A3017 RMK A01 T02590082  RH  033%=      5-min Rain = 0
KGU1 131102Z 28005KT 26/08 A3017 RMK A01 T02600082  RH  033%=      5-min Rain = 0
KGU1 131103Z 29004KT 26/08 A3017 RMK A01 T02600082  RH  033%=      5-min Rain = 0
KGU1 131104Z 29005KT 26/08 A3017 RMK A01 T02600082  RH  033%=      5-min Rain = 0
KGU1 131105Z 29005KT 26/08 A3017 RMK A01 T02590082  RH  034%=      5-min Rain = 0
KGU1 131106Z 30005KT 26/08 A3017 RMK A01 T02590081  RH  033%=      5-min Rain = 0
KGU1 131107Z 29008KT 26/08 A3017 RMK A01 T02610081  RH  033%=      5-min Rain = 0
KGU1 131108Z 29007KT 26/08 A3017 RMK A01 T02620082  RH  033%=      5-min Rain = 0
KGU1 131109Z 31006KT 26/08 A3017 RMK A01 T02640082  RH  032%=      5-min Rain = 0
KGU1 131110Z 34003KT 27/08 A3017 RMK A01 T02670082  RH  032%=      5-min Rain = 0
KGU1 131111Z 29003KT 27/08 A3017 RMK A01 T02670082  RH  032%=      5-min Rain = 0
KGU1 131112Z 29005KT 27/08 A3017 RMK A01 T02660082  RH  032%=      5-min Rain = 0
KGU1 131113Z 29005KT 27/08 A3017 RMK A01 T02650083  RH  033%=      5-min Rain = 0
KGU1 131114Z 30006KT 26/08 A3017 RMK A01 T02620083  RH  033%=      5-min Rain = 0
KGU1 131115Z 31005KT 26/08 A3017 RMK A01 T02620083  RH  033%=      5-min Rain = 0
KGU1 131116Z 29005KT 26/08 A3017 RMK A01 T02630083  RH  033%=      5-min Rain = 0
KGU1 131117Z 28007KT 26/08 A3017 RMK A01 T02620083  RH  033%=      5-min Rain = 0
KGU1 131118Z 29005KT 26/08 A3017 RMK A01 T02630083  RH  033%=      5-min Rain = 0
KGU1 131119Z 29004KT 26/08 A3017 RMK A01 T02630083  RH  033%=      5-min Rain = 0
KGU1 131120Z 29004KT 26/08 A3017 RMK A01 T02630084  RH  033%=      5-min Rain = 0
KGU1 131121Z 28004KT 26/08 A3017 RMK A01 T02620084  RH  033%=      5-min Rain = 0
KGU1 131122Z 29004KT 26/08 A3017 RMK A01 T02610084  RH  034%=      5-min Rain = 0
KGU1 131123Z 29003KT 26/08 A3017 RMK A01 T02600084  RH  034%=      5-min Rain = 0
KGU1 131124Z 29002KT 26/08 A3017 RMK A01 T02580083  RH  034%=      5-min Rain = 0
KGU1 131125Z 30003KT 26/08 A3017 RMK A01 T02570083  RH  034%=      5-min Rain = 0
KGU1 131126Z 31004KT 26/08 A3017 RMK A01 T02570083  RH  034%=      5-min Rain = 0
KGU1 131127Z 31003KT 26/08 A3017 RMK A01 T02580083  RH  034%=      5-min Rain = 0
KGU1 131128Z 32006KT 26/08 A3017 RMK A01 T02600083  RH  034%=      5-min Rain = 0
KGU1 131129Z 30005KT 26/08 A3017 RMK A01 T02620084  RH  033%=      5-min Rain = 0
KGU1 131130Z 32004KT 26/08 A3017 RMK A01 T02640084  RH  033%=      5-min Rain = 0
KGU1 131131Z 31002KT 27/08 A3017 RMK A01 T02650083  RH  033%=      5-min Rain = 0
KGU1 131132Z 34000KT 27/08 A3017 RMK A01 T02660083  RH  032%=      5-min Rain = 0
KGU1 131133Z 00000KT 27/08 A3017 RMK A01 T02670083  RH  032%=      5-min Rain = 0
KGU1 131134Z 33000KT 27/08 A3017 RMK A01 T02670083  RH  032%=      5-min Rain = 0
KGU1 131135Z 06000KT 27/08 A3017 RMK A01 T02670083  RH  032%=      5-min Rain = 0
KGU1 131136Z 00000KT 27/08 A3017 RMK A01 T02680084  RH  032%=      5-min Rain = 0
KGU1 131137Z 00000KT 27/08 A3017 RMK A01 T02680084  RH  032%=      5-min Rain = 0
KGU1 131138Z 13000KT 27/08 A3017 RMK A01 T02680084  RH  032%=      5-min Rain = 0
KGU1 131139Z 13002KT 27/08 A3018 RMK A01 T02670083  RH  032%=      5-min Rain = 0
KGU1 131140Z 11002KT 27/08 A3018 RMK A01 T02660083  RH  032%=      5-min Rain = 0
KGU1 131141Z 12003KT 27/08 A3018 RMK A01 T02650083  RH  033%=      5-min Rain = 0
KGU1 131142Z 09001KT 26/08 A3018 RMK A01 T02630083  RH  033%=      5-min Rain = 0
KGU1 131143Z 10001KT 26/08 A3018 RMK A01 T02620084  RH  033%=      5-min Rain = 0
KGU1 131144Z 00000KT 26/08 A3018 RMK A01 T02620084  RH  033%=      5-min Rain = 0
KGU1 131145Z 00000KT 26/08 A3018 RMK A01 T02620084  RH  033%=      5-min Rain = 0
KGU1 131146Z 00000KT 26/08 A3018 RMK A01 T02600084  RH  034%=      5-min Rain = 0
KGU1 131147Z 00000KT 26/08 A3018 RMK A01 T02590083  RH  034%=      5-min Rain = 0
KGU1 131148Z 04000KT 26/08 A3018 RMK A01 T02570083  RH  034%=      5-min Rain = 0
KGU1 131149Z 00001KT 26/08 A3018 RMK A01 T02550084  RH  035%=      5-min Rain = 0
KGU1 131150Z 00001KT 25/08 A3018 RMK A01 T02540084  RH  035%=      5-min Rain = 0
KGU1 131151Z 00002KT 25/08 A3018 RMK A01 T02540084  RH  035%=      5-min Rain = 0
KGU1 131152Z 35003KT 25/08 A3018 RMK A01 T02510083  RH  035%=      5-min Rain = 0
KGU1 131153Z 34004KT 25/08 A3018 RMK A01 T02490083  RH  036%=      5-min Rain = 0
KGU1 131154Z 33005KT 25/08 A3018 RMK A01 T02470083  RH  036%=      5-min Rain = 0
KGU1 131155Z 34005KT 25/08 A3018 RMK A01 T02450083  RH  036%=      5-min Rain = 0
KGU1 131156Z 34006KT 24/08 A3018 RMK A01 T02440082  RH  037%=      5-min Rain = 0
KGU1 131157Z 34005KT 24/08 A3018 RMK A01 T02430082  RH  037%=      5-min Rain = 0
KGU1 131158Z 34005KT 24/08 A3018 RMK A01 T02430082  RH  037%=      5-min Rain = 0
KGU1 131159Z 33004KT 24/08 A3018 RMK A01 T02430082  RH  037%=      5-min Rain = 0
KGU1 131200Z 33003KT 24/08 A3018 RMK A01 T02430082  RH  037%=      5-min Rain = 0
KGU1 131201Z 34003KT 24/08 A3018 RMK A01 T02430082  RH  037%=      5-min Rain = 0
KGU1 131202Z 34003KT 24/08 A3018 RMK A01 T02430082  RH  037%=      5-min Rain = 0
KGU1 131203Z 32002KT 24/08 A3018 RMK A01 T02420083  RH  037%=      5-min Rain = 0
KGU1 131204Z 32003KT 24/08 A3018 RMK A01 T02430082  RH  037%=      5-min Rain = 0
KGU1 131205Z 31002KT 24/08 A3018 RMK A01 T02430082  RH  037%=      5-min Rain = 0
KGU1 131206Z 34003KT 24/08 A3018 RMK A01 T02430082  RH  037%=      5-min Rain = 0
KGU1 131207Z 32004KT 24/08 A3018 RMK A01 T02420082  RH  037%=      5-min Rain = 0
KGU1 131208Z 30004KT 24/08 A3018 RMK A01 T02400082  RH  037%=      5-min Rain = 0
KGU1 131209Z 30005KT 24/08 A3018 RMK A01 T02390082  RH  038%=      5-min Rain = 0
KGU1 131210Z 30005KT 24/08 A3018 RMK A01 T02380082  RH  038%=      5-min Rain = 0
KGU1 131211Z 30004KT 24/08 A3018 RMK A01 T02390083  RH  038%=      5-min Rain = 0
KGU1 131212Z 30004KT 24/08 A3018 RMK A01 T02400083  RH  038%=      5-min Rain = 0
KGU1 131213Z 31003KT 24/08 A3018 RMK A01 T02390083  RH  038%=      5-min Rain = 0
KGU1 131214Z 30005KT 24/08 A3018 RMK A01 T02400083  RH  038%=      5-min Rain = 0
KGU1 131215Z 30005KT 24/08 A3018 RMK A01 T02400083  RH  038%=      5-min Rain = 0
KGU1 131216Z 31005KT 24/08 A3018 RMK A01 T02390082  RH  038%=      5-min Rain = 0
KGU1 131217Z 31004KT 24/08 A3018 RMK A01 T02410082  RH  037%=      5-min Rain = 0
KGU1 131218Z 30005KT 24/08 A3018 RMK A01 T02440081  RH  036%=      5-min Rain = 0
KGU1 131219Z 30005KT 25/08 A3018 RMK A01 T02450082  RH  036%=      5-min Rain = 0
KGU1 131220Z 31004KT 25/08 A3018 RMK A01 T02450082  RH  036%=      5-min Rain = 0
KGU1 131221Z 30004KT 24/08 A3018 RMK A01 T02440082  RH  037%=      5-min Rain = 0
KGU1 131222Z 30004KT 24/08 A3018 RMK A01 T02430082  RH  037%=      5-min Rain = 0
KGU1 131223Z 31003KT 24/08 A3018 RMK A01 T02430081  RH  037%=      5-min Rain = 0
KGU1 131224Z 31003KT 24/08 A3018 RMK A01 T02430081  RH  037%=      5-min Rain = 0
KGU1 131225Z 31003KT 24/08 A3019 RMK A01 T02430081  RH  036%=      5-min Rain = 0
KGU1 131226Z 31003KT 25/08 A3019 RMK A01 T02460081  RH  036%=      5-min Rain = 0
KGU1 131227Z 31003KT 25/08 A3019 RMK A01 T02480081  RH  036%=      5-min Rain = 0
KGU1 131228Z 32003KT 25/08 A3019 RMK A01 T02470081  RH  036%=      5-min Rain = 0
KGU1 131229Z 33002KT 25/08 A3019 RMK A01 T02460081  RH  036%=      5-min Rain = 0
KGU1 131230Z 33002KT 25/08 A3019 RMK A01 T02450081  RH  036%=      5-min Rain = 0
KGU1 131231Z 34001KT 25/08 A3019 RMK A01 T02460081  RH  036%=      5-min Rain = 0
KGU1 131232Z 01000KT 25/08 A3019 RMK A01 T02460081  RH  036%=      5-min Rain = 0
KGU1 131233Z 12002KT 25/08 A3019 RMK A01 T02480082  RH  036%=      5-min Rain = 0
KGU1 131234Z 09002KT 25/08 A3019 RMK A01 T02510081  RH  035%=      5-min Rain = 0
KGU1 131235Z 08003KT 26/08 A3019 RMK A01 T02550081  RH  034%=      5-min Rain = 0
KGU1 131236Z 09002KT 26/08 A3019 RMK A01 T02590081  RH  033%=      5-min Rain = 0
KGU1 131237Z 09001KT 26/08 A3019 RMK A01 T02610082  RH  033%=      5-min Rain = 0
KGU1 131238Z 09001KT 26/08 A302 RMK A01 T02610081  RH  033%=      5-min Rain = 0
KGU1 131239Z 09000KT 26/08 A302 RMK A01 T02620082  RH  033%=      5-min Rain = 0
KGU1 131240Z 09000KT 26/08 A302 RMK A01 T02600082  RH  033%=      5-min Rain = 0
KGU1 131241Z 20001KT 26/08 A302 RMK A01 T02600082  RH  033%=      5-min Rain = 0
KGU1 131242Z 21003KT 26/08 A302 RMK A01 T02580083  RH  034%=      5-min Rain = 0
KGU1 131243Z 20003KT 26/08 A302 RMK A01 T02570083  RH  034%=      5-min Rain = 0
KGU1 131244Z 20003KT 26/08 A302 RMK A01 T02550083  RH  034%=      5-min Rain = 0
KGU1 131245Z 21003KT 26/08 A302 RMK A01 T02550082  RH  034%=      5-min Rain = 0
KGU1 131246Z 19003KT 25/08 A302 RMK A01 T02540083  RH  035%=      5-min Rain = 0
KGU1 131247Z 18002KT 25/08 A302 RMK A01 T02540081  RH  034%=      5-min Rain = 0
KGU1 131248Z 19003KT 26/08 A302 RMK A01 T02550080  RH  034%=      5-min Rain = 0
KGU1 131249Z 18002KT 26/08 A302 RMK A01 T02560079  RH  033%=      5-min Rain = 0
KGU1 131250Z 17003KT 26/08 A302 RMK A01 T02560080  RH  034%=      5-min Rain = 0
KGU1 131251Z 16003KT 26/08 A302 RMK A01 T02570080  RH  033%=      5-min Rain = 0
KGU1 131252Z 17003KT 26/08 A302 RMK A01 T02580080  RH  033%=      5-min Rain = 0
KGU1 131253Z 16003KT 26/08 A302 RMK A01 T02580080  RH  033%=      5-min Rain = 0
KGU1 131254Z 13003KT 26/08 A302 RMK A01 T02590081  RH  033%=      5-min Rain = 0
KGU1 131255Z 15001KT 26/08 A302 RMK A01 T02590081  RH  033%=      5-min Rain = 0
KGU1 131256Z 16002KT 26/08 A302 RMK A01 T02600083  RH  033%=      5-min Rain = 0
KGU1 131257Z 12001KT 26/08 A302 RMK A01 T02610082  RH  033%=      5-min Rain = 0
KGU1 131258Z 11002KT 26/09 A302 RMK A01 T02610085  RH  034%=      5-min Rain = 0
KGU1 131259Z 10002KT 26/08 A302 RMK A01 T02620084  RH  033%=      5-min Rain = 0
KGU1 131300Z 09002KT 26/08 A302 RMK A01 T02620084  RH  033%=      5-min Rain = 0
KGU1 131301Z 10002KT 26/09 A302 RMK A01 T02620085  RH  033%=      5-min Rain = 0
KGU1 131302Z 09002KT 26/09 A302 RMK A01 T02620085  RH  034%=      5-min Rain = 0
KGU1 131303Z 08001KT 26/09 A302 RMK A01 T02630086  RH  034%=      5-min Rain = 0
KGU1 131304Z 30003KT 26/09 A302 RMK A01 T02610086  RH  034%=      5-min Rain = 0
KGU1 131305Z 30004KT 26/09 A302 RMK A01 T02570086  RH  035%=      5-min Rain = 0
KGU1 131306Z 30004KT 25/09 A302 RMK A01 T02540086  RH  035%=      5-min Rain = 0
KGU1 131307Z 31003KT 25/09 A302 RMK A01 T02520086  RH  036%=      5-min Rain = 0
KGU1 131308Z 30004KT 25/09 A302 RMK A01 T02510086  RH  036%=      5-min Rain = 0
KGU1 131309Z 31003KT 25/09 A302 RMK A01 T02510086  RH  036%=      5-min Rain = 0
KGU1 131310Z 31003KT 25/09 A302 RMK A01 T02500086  RH  036%=      5-min Rain = 0
KGU1 131311Z 30002KT 25/09 A302 RMK A01 T02510086  RH  036%=      5-min Rain = 0
KGU1 131312Z 28001KT 25/09 A302 RMK A01 T02520086  RH  036%=      5-min Rain = 0
KGU1 131313Z 31002KT 25/09 A3021 RMK A01 T02530087  RH  036%=      5-min Rain = 0
KGU1 131314Z 32002KT 25/09 A3021 RMK A01 T02530087  RH  036%=      5-min Rain = 0
KGU1 131315Z 33001KT 25/09 A3021 RMK A01 T02530088  RH  036%=      5-min Rain = 0
KGU1 131316Z 33001KT 25/09 A3021 RMK A01 T02540088  RH  036%=      5-min Rain = 0
KGU1 131317Z 33000KT 26/09 A3021 RMK A01 T02550089  RH  036%=      5-min Rain = 0
KGU1 131318Z 33001KT 26/09 A3021 RMK A01 T02570091  RH  036%=      5-min Rain = 0
KGU1 131319Z 34002KT 26/09 A3021 RMK A01 T02590091  RH  036%=      5-min Rain = 0
KGU1 131320Z 34001KT 26/09 A3021 RMK A01 T02600091  RH  035%=      5-min Rain = 0
KGU1 131321Z 34001KT 26/09 A3021 RMK A01 T02610089  RH  035%=      5-min Rain = 0
KGU1 131322Z 34000KT 26/09 A3021 RMK A01 T02630090  RH  034%=      5-min Rain = 0
KGU1 131323Z 34000KT 26/09 A3021 RMK A01 T02640090  RH  034%=      5-min Rain = 0
KGU1 131324Z 33001KT 27/09 A3021 RMK A01 T02660089  RH  034%=      5-min Rain = 0
KGU1 131325Z 34001KT 27/09 A3021 RMK A01 T02680090  RH  034%=      5-min Rain = 0
KGU1 131326Z 35002KT 27/09 A3021 RMK A01 T02690091  RH  034%=      5-min Rain = 0
KGU1 131327Z 35001KT 27/09 A3021 RMK A01 T02700092  RH  034%=      5-min Rain = 0
KGU1 131328Z 35001KT 27/09 A3021 RMK A01 T02720091  RH  033%=      5-min Rain = 0
KGU1 131329Z 35001KT 27/09 A3021 RMK A01 T02720091  RH  033%=      5-min Rain = 0
KGU1 131330Z 35001KT 27/09 A3021 RMK A01 T02730091  RH  033%=      5-min Rain = 0
KGU1 131331Z 34001KT 27/09 A3021 RMK A01 T02740091  RH  033%=      5-min Rain = 0
KGU1 131332Z 33001KT 28/09 A3021 RMK A01 T02750092  RH  033%=      5-min Rain = 0
KGU1 131333Z 32001KT 28/09 A3021 RMK A01 T02760091  RH  032%=      5-min Rain = 0
KGU1 131334Z 32001KT 28/09 A3021 RMK A01 T02770090  RH  032%=      5-min Rain = 0
KGU1 131335Z 32001KT 28/09 A3021 RMK A01 T02770091  RH  032%=      5-min Rain = 0
KGU1 131336Z 32001KT 28/09 A3021 RMK A01 T02790092  RH  032%=      5-min Rain = 0
KGU1 131337Z 35001KT 28/09 A3021 RMK A01 T02810094  RH  032%=      5-min Rain = 0
KGU1 131338Z 35001KT 28/09 A3021 RMK A01 T02810094  RH  032%=      5-min Rain = 0
KGU1 131339Z 01001KT 28/10 A3021 RMK A01 T02820095  RH  032%=      5-min Rain = 0
KGU1 131340Z 03002KT 28/09 A3021 RMK A01 T02820093  RH  032%=      5-min Rain = 0
KGU1 131341Z 04002KT 28/09 A3021 RMK A01 T02820093  RH  032%=      5-min Rain = 0
KGU1 131342Z 03003KT 28/10 A3021 RMK A01 T02820095  RH  032%=      5-min Rain = 0
KGU1 131343Z 01002KT 28/10 A3021 RMK A01 T02820095  RH  032%=      5-min Rain = 0
KGU1 131344Z 03001KT 28/10 A3021 RMK A01 T02830096  RH  032%=      5-min Rain = 0
KGU1 131345Z 04003KT 29/10 A3021 RMK A01 T02850096  RH  032%=      5-min Rain = 0
KGU1 131346Z 05003KT 29/10 A3021 RMK A01 T02860095  RH  031%=      5-min Rain = 0
KGU1 131347Z 05002KT 29/10 A3021 RMK A01 T02850095  RH  031%=      5-min Rain = 0
KGU1 131348Z 08002KT 29/10 A3021 RMK A01 T02860097  RH  032%=      5-min Rain = 0
KGU1 131349Z 04003KT 29/10 A3021 RMK A01 T02880096  RH  031%=      5-min Rain = 0
KGU1 131350Z 07004KT 29/10 A3021 RMK A01 T02870097  RH  031%=      5-min Rain = 0
KGU1 131351Z 08004KT 29/10 A3021 RMK A01 T02860097  RH  032%=      5-min Rain = 0
KGU1 131352Z 07004KT 28/10 A3021 RMK A01 T02840097  RH  032%=      5-min Rain = 0
KGU1 131353Z 07005KT 28/10 A3021 RMK A01 T02830096  RH  032%=      5-min Rain = 0
KGU1 131354Z 06004KT 28/10 A3021 RMK A01 T02820096  RH  032%=      5-min Rain = 0
KGU1 131355Z 07005KT 28/10 A3021 RMK A01 T02820096  RH  032%=      5-min Rain = 0
KGU1 131356Z 08005KT 28/10 A3021 RMK A01 T02820096  RH  032%=      5-min Rain = 0
KGU1 131357Z 07005KT 28/10 A3021 RMK A01 T02810095  RH  032%=      5-min Rain = 0
KGU1 131358Z 06004KT 28/10 A3021 RMK A01 T02800097  RH  033%=      5-min Rain = 0
KGU1 131359Z 07005KT 28/10 A3021 RMK A01 T02800098  RH  033%=      5-min Rain = 0
KGU1 131400Z 06006KT 28/10 A3021 RMK A01 T02800097  RH  033%=      5-min Rain = 0
KGU1 131401Z 07006KT 28/10 A3021 RMK A01 T02800098  RH  033%=      5-min Rain = 0
KGU1 131402Z 06004KT 28/10 A3022 RMK A01 T02800099  RH  033%=      5-min Rain = 0
KGU1 131403Z 06004KT 28/10 A3022 RMK A01 T02800099  RH  033%=      5-min Rain = 0
KGU1 131404Z 05006KT 28/10 A3022 RMK A01 T02810099  RH  033%=      5-min Rain = 0
KGU1 131405Z 04008KT 28/10 A3022 RMK A01 T02810102  RH  034%=      5-min Rain = 0
KGU1 131406Z 05008KT 28/10 A3022 RMK A01 T02800104  RH  034%=      5-min Rain = 0
KGU1 131407Z 07006KT 28/10 A3022 RMK A01 T02800103  RH  034%=      5-min Rain = 0
KGU1 131408Z 06006KT 28/11 A3022 RMK A01 T02800105  RH  035%=      5-min Rain = 0
KGU1 131409Z 06007KT 28/11 A3022 RMK A01 T02800106  RH  035%=      5-min Rain = 0
KGU1 131410Z 07007KT 28/11 A3022 RMK A01 T02790106  RH  035%=      5-min Rain = 0
KGU1 131411Z 08007KT 28/11 A3022 RMK A01 T02790106  RH  035%=      5-min Rain = 0
KGU1 131412Z 07005KT 28/11 A3022 RMK A01 T02790105  RH  035%=      5-min Rain = 0
KGU1 131413Z 07007KT 28/11 A3022 RMK A01 T02790106  RH  035%=      5-min Rain = 0
KGU1 131414Z 07006KT 28/11 A3022 RMK A01 T02790105  RH  035%=      5-min Rain = 0
KGU1 131415Z 07006KT 28/10 A3022 RMK A01 T02780104  RH  035%=      5-min Rain = 0
KGU1 131416Z 08006KT 28/11 A3022 RMK A01 T02780105  RH  035%=      5-min Rain = 0
KGU1 131417Z 07006KT 28/11 A3022 RMK A01 T02780105  RH  035%=      5-min Rain = 0
KGU1 131418Z 08005KT 28/11 A3022 RMK A01 T02780105  RH  035%=      5-min Rain = 0
KGU1 131419Z 07006KT 28/11 A3022 RMK A01 T02780105  RH  035%=      5-min Rain = 0
KGU1 131420Z 09006KT 28/11 A3022 RMK A01 T02780105  RH  035%=      5-min Rain = 0
KGU1 131421Z 08005KT 28/11 A3022 RMK A01 T02780105  RH  035%=      5-min Rain = 0
KGU1 131422Z 08005KT 28/11 A3022 RMK A01 T02790106  RH  035%=      5-min Rain = 0
KGU1 131423Z 07005KT 28/11 A3022 RMK A01 T02790106  RH  035%=      5-min Rain = 0
KGU1 131424Z 07006KT 28/11 A3022 RMK A01 T02800106  RH  035%=      5-min Rain = 0
KGU1 131425Z 07005KT 28/11 A3022 RMK A01 T02790105  RH  035%=      5-min Rain = 0
KGU1 131426Z 07005KT 28/11 A3022 RMK A01 T02790106  RH  035%=      5-min Rain = 0
KGU1 131427Z 07007KT 28/11 A3022 RMK A01 T02800106  RH  035%=      5-min Rain = 0
KGU1 131428Z 06006KT 28/11 A3022 RMK A01 T02800106  RH  035%=      5-min Rain = 0
KGU1 131429Z 06007KT 28/11 A3022 RMK A01 T02800106  RH  035%=      5-min Rain = 0
KGU1 131430Z 06006KT 28/11 A3022 RMK A01 T02800106  RH  035%=      5-min Rain = 0
KGU1 131431Z 08007KT 28/11 A3022 RMK A01 T02800106  RH  035%=      5-min Rain = 0
KGU1 131432Z 08008KT 28/11 A3022 RMK A01 T02810105  RH  035%=      5-min Rain = 0
KGU1 131433Z 07007KT 28/11 A3022 RMK A01 T02810105  RH  035%=      5-min Rain = 0
KGU1 131434Z 07006KT 28/11 A3022 RMK A01 T02810105  RH  034%=      5-min Rain = 0
KGU1 131435Z 07006KT 28/10 A3022 RMK A01 T02810104  RH  034%=      5-min Rain = 0
KGU1 131436Z 07007KT 28/10 A3022 RMK A01 T02810103  RH  034%=      5-min Rain = 0
KGU1 131437Z 07006KT 28/10 A3022 RMK A01 T02810104  RH  034%=      5-min Rain = 0
KGU1 131438Z 07006KT 28/11 A3022 RMK A01 T02820105  RH  034%=      5-min Rain = 0
KGU1 131439Z 07007KT 28/11 A3022 RMK A01 T02820105  RH  034%=      5-min Rain = 0
KGU1 131440Z 06005KT 28/11 A3022 RMK A01 T02820106  RH  035%=      5-min Rain = 0
KGU1 131441Z 06006KT 28/11 A3022 RMK A01 T02830106  RH  034%=      5-min Rain = 0
KGU1 131442Z 06004KT 28/11 A3022 RMK A01 T02830105  RH  034%=      5-min Rain = 0
KGU1 131443Z 06006KT 28/11 A3022 RMK A01 T02840106  RH  034%=      5-min Rain = 0
KGU1 131444Z 07006KT 28/11 A3022 RMK A01 T02840105  RH  034%=      5-min Rain = 0
KGU1 131445Z 08004KT 28/11 A3022 RMK A01 T02840106  RH  034%=      5-min Rain = 0
KGU1 131446Z 08006KT 29/10 A3022 RMK A01 T02860104  RH  033%=      5-min Rain = 0
KGU1 131447Z 08009KT 29/11 A3022 RMK A01 T02860105  RH  033%=      5-min Rain = 0
KGU1 131448Z 07007KT 29/11 A3022 RMK A01 T02850106  RH  034%=      5-min Rain = 0
KGU1 131449Z 06005KT 29/11 A3022 RMK A01 T02860106  RH  034%=      5-min Rain = 0
KGU1 131450Z 06008KT 29/11 A3023 RMK A01 T02870106  RH  034%=      5-min Rain = 0
KGU1 131451Z 07007KT 29/11 A3023 RMK A01 T02860105  RH  033%=      5-min Rain = 0
KGU1 131452Z 06006KT 29/11 A3023 RMK A01 T02860105  RH  034%=      5-min Rain = 0
KGU1 131453Z 08005KT 29/11 A3023 RMK A01 T02870107  RH  034%=      5-min Rain = 0
KGU1 131454Z 08008KT 29/11 A3023 RMK A01 T02890106  RH  033%=      5-min Rain = 0
KGU1 131455Z 10008KT 29/11 A3023 RMK A01 T02890106  RH  033%=      5-min Rain = 0
KGU1 131456Z 09008KT 29/11 A3023 RMK A01 T02880106  RH  033%=      5-min Rain = 0
KGU1 131457Z 09007KT 29/11 A3023 RMK A01 T02890108  RH  034%=      5-min Rain = 0
KGU1 131458Z 09009KT 29/11 A3023 RMK A01 T02890107  RH  033%=      5-min Rain = 0
KGU1 131459Z 08008KT 29/11 A3023 RMK A01 T02880106  RH  033%=      5-min Rain = 0
KGU1 131500Z 09007KT 29/11 A3023 RMK A01 T02870106  RH  034%=      5-min Rain = 0
KGU1 131501Z 09005KT 29/11 A3023 RMK A01 T02890106  RH  033%=      5-min Rain = 0
KGU1 131502Z 08005KT 29/11 A3023 RMK A01 T02910107  RH  033%=      5-min Rain = 0
KGU1 131503Z 09008KT 29/11 A3023 RMK A01 T02930106  RH  033%=      5-min Rain = 0
KGU1 131504Z 09007KT 29/11 A3023 RMK A01 T02920106  RH  033%=      5-min Rain = 0
KGU1 131505Z 08007KT 29/11 A3023 RMK A01 T02920106  RH  033%=      5-min Rain = 0
KGU1 131506Z 08006KT 29/11 A3023 RMK A01 T02920106  RH  033%=      5-min Rain = 0
KGU1 131507Z 08007KT 29/11 A3023 RMK A01 T02940107  RH  033%=      5-min Rain = 0
KGU1 131508Z 08007KT 29/11 A3023 RMK A01 T02940105  RH  032%=      5-min Rain = 0
KGU1 131509Z 07005KT 29/11 A3023 RMK A01 T02930105  RH  032%=      5-min Rain = 0
KGU1 131510Z 08007KT 29/11 A3023 RMK A01 T02930107  RH  032%=      5-min Rain = 0
KGU1 131511Z 09006KT 29/10 A3023 RMK A01 T02920104  RH  032%=      5-min Rain = 0
KGU1 131512Z 09005KT 29/10 A3023 RMK A01 T02910103  RH  032%=      5-min Rain = 0
KGU1 131513Z 09005KT 29/10 A3023 RMK A01 T02910103  RH  032%=      5-min Rain = 0
KGU1 131514Z 09006KT 29/11 A3023 RMK A01 T02920105  RH  033%=      5-min Rain = 0
KGU1 131515Z 09007KT 29/11 A3023 RMK A01 T02920106  RH  033%=      5-min Rain = 0
KGU1 131516Z 09005KT 29/11 A3023 RMK A01 T02910106  RH  033%=      5-min Rain = 0
KGU1 131517Z 08007KT 29/11 A3023 RMK A01 T02910106  RH  033%=      5-min Rain = 0
KGU1 131518Z 07008KT 29/11 A3023 RMK A01 T02920105  RH  032%=      5-min Rain = 0
KGU1 131519Z 08007KT 29/11 A3023 RMK A01 T02920105  RH  032%=      5-min Rain = 0
KGU1 131520Z 09008KT 29/11 A3023 RMK A01 T02930105  RH  032%=      5-min Rain = 0
KGU1 131521Z 08009KT 29/11 A3023 RMK A01 T02930105  RH  032%=      5-min Rain = 0
KGU1 131522Z 09007KT 29/11 A3023 RMK A01 T02920105  RH  032%=      5-min Rain = 0
KGU1 131523Z 08007KT 29/11 A3023 RMK A01 T02940106  RH  032%=      5-min Rain = 0
KGU1 131524Z 07006KT 29/11 A3023 RMK A01 T02940105  RH  032%=      5-min Rain = 0
KGU1 131525Z 08008KT 29/11 A3023 RMK A01 T02940106  RH  032%=      5-min Rain = 0
KGU1 131526Z 08009KT 30/11 A3023 RMK A01 T02960106  RH  032%=      5-min Rain = 0
KGU1 131527Z 06009KT 30/11 A3023 RMK A01 T02950106  RH  032%=      5-min Rain = 0
KGU1 131528Z 07006KT 29/11 A3023 RMK A01 T02940106  RH  032%=      5-min Rain = 0
KGU1 131529Z 08007KT 29/11 A3023 RMK A01 T02930107  RH  033%=      5-min Rain = 0
KGU1 131530Z 09007KT 29/11 A3023 RMK A01 T02930107  RH  033%=      5-min Rain = 0
KGU1 131531Z 07009KT 29/11 A3023 RMK A01 T02940108  RH  033%=      5-min Rain = 0
KGU1 131532Z 05006KT 29/11 A3024 RMK A01 T02940108  RH  033%=      5-min Rain = 0
KGU1 131533Z 04007KT 30/11 A3024 RMK A01 T02950108  RH  032%=      5-min Rain = 0
KGU1 131534Z 04008KT 30/11 A3024 RMK A01 T02960107  RH  032%=      5-min Rain = 0
KGU1 131535Z 05008KT 30/11 A3024 RMK A01 T02950107  RH  032%=      5-min Rain = 0
KGU1 131536Z 05007KT 29/11 A3024 RMK A01 T02940108  RH  033%=      5-min Rain = 0
KGU1 131537Z 07008KT 30/11 A3024 RMK A01 T02950109  RH  033%=      5-min Rain = 0
KGU1 131538Z 05007KT 30/11 A3024 RMK A01 T02960110  RH  033%=      5-min Rain = 0
KGU1 131539Z 06008KT 30/11 A3024 RMK A01 T02960108  RH  032%=      5-min Rain = 0
KGU1 131540Z 06008KT 30/11 A3024 RMK A01 T02950109  RH  033%=      5-min Rain = 0
KGU1 131541Z 05007KT 30/11 A3024 RMK A01 T02950108  RH  032%=      5-min Rain = 0
KGU1 131542Z 07008KT 30/11 A3024 RMK A01 T02950108  RH  032%=      5-min Rain = 0
KGU1 131543Z 06005KT 30/11 A3024 RMK A01 T02960107  RH  032%=      5-min Rain = 0
KGU1 131544Z 08008KT 30/11 A3024 RMK A01 T02960107  RH  032%=      5-min Rain = 0
KGU1 131545Z 05008KT 30/11 A3024 RMK A01 T02950108  RH  032%=      5-min Rain = 0
KGU1 131546Z 09008KT 30/11 A3024 RMK A01 T02950109  RH  033%=      5-min Rain = 0
KGU1 131547Z 09008KT 30/11 A3024 RMK A01 T02970110  RH  033%=      5-min Rain = 0
KGU1 131548Z 09009KT 30/11 A3024 RMK A01 T02990111  RH  032%=      5-min Rain = 0
KGU1 131549Z 08011KT 30/11 A3024 RMK A01 T02980110  RH  032%=      5-min Rain = 0
KGU1 131550Z 08008KT 30/11 A3024 RMK A01 T02950110  RH  033%=      5-min Rain = 0
KGU1 131551Z 08007KT 30/11 A3024 RMK A01 T02950109  RH  033%=      5-min Rain = 0
KGU1 131552Z 09008KT 29/11 A3024 RMK A01 T02940108  RH  033%=      5-min Rain = 0
KGU1 131553Z 10005KT 29/11 A3024 RMK A01 T02930109  RH  033%=      5-min Rain = 0
KGU1 131554Z 08009G14KT 29/11 A3024 RMK A01 T02940112  RH  034%=      5-min Rain = 0
KGU1 131555Z 08009KT 30/11 A3024 RMK A01 T02950111  RH  033%=      5-min Rain = 0
KGU1 131556Z 09011KT 30/11 A3024 RMK A01 T02970111  RH  033%=      5-min Rain = 0
KGU1 131557Z 08009KT 30/11 A3024 RMK A01 T02970110  RH  033%=      5-min Rain = 0
KGU1 131558Z 06005KT 30/11 A3024 RMK A01 T02970110  RH  033%=      5-min Rain = 0
KGU1 131559Z 06006KT 30/11 A3024 RMK A01 T02970111  RH  033%=      5-min Rain = 0
KGU1 131600Z 07008KT 30/11 A3024 RMK A01 T02970110  RH  033%=      5-min Rain = 0
KGU1 131601Z 08008KT 30/11 A3024 RMK A01 T02960111  RH  033%=      5-min Rain = 0
KGU1 131602Z 09008KT 30/11 A3024 RMK A01 T02960114  RH  034%=      5-min Rain = 0
KGU1 131603Z 09009KT 30/12 A3024 RMK A01 T02970115  RH  034%=      5-min Rain = 0
KGU1 131604Z 10008KT 30/12 A3024 RMK A01 T02980115  RH  034%=      5-min Rain = 0
KGU1 131605Z 09007KT 30/12 A3024 RMK A01 T02990115  RH  033%=      5-min Rain = 0
KGU1 131606Z 10007KT 30/11 A3024 RMK A01 T02990113  RH  033%=      5-min Rain = 0
KGU1 131607Z 10008KT 30/11 A3024 RMK A01 T02980111  RH  033%=      5-min Rain = 0
KGU1 131608Z 09006KT 30/11 A3024 RMK A01 T02990113  RH  033%=      5-min Rain = 0
KGU1 131609Z 10011KT 30/11 A3024 RMK A01 T03010114  RH  033%=      5-min Rain = 0
KGU1 131610Z 09011KT 30/12 A3024 RMK A01 T02980115  RH  034%=      5-min Rain = 0
KGU1 131611Z 09010KT 30/12 A3024 RMK A01 T02970117  RH  034%=      5-min Rain = 0
KGU1 131612Z 07008KT 30/12 A3024 RMK A01 T02980116  RH  034%=      5-min Rain = 0
KGU1 131613Z 06007KT 30/11 A3024 RMK A01 T02990112  RH  033%=      5-min Rain = 0
KGU1 131614Z 08009KT 30/11 A3024 RMK A01 T02990114  RH  033%=      5-min Rain = 0
KGU1 131615Z 08007KT 30/11 A3024 RMK A01 T02990114  RH  033%=      5-min Rain = 0
KGU1 131616Z 09006KT 30/11 A3024 RMK A01 T02980112  RH  033%=      5-min Rain = 0
KGU1 131617Z 09005G12KT 30/11 A3024 RMK A01 T02980110  RH  032%=      5-min Rain = 0
KGU1 131618Z 09010KT 30/11 A3024 RMK A01 T02970113  RH  033%=      5-min Rain = 0
KGU1 131619Z 09009KT 30/11 A3024 RMK A01 T02950113  RH  034%=      5-min Rain = 0
KGU1 131620Z 06007KT 29/11 A3024 RMK A01 T02940111  RH  033%=      5-min Rain = 0
KGU1 131621Z 08005KT 29/11 A3024 RMK A01 T02930112  RH  034%=      5-min Rain = 0
KGU1 131622Z 11009KT 30/11 A3024 RMK A01 T02960114  RH  034%=      5-min Rain = 0
KGU1 131623Z 09009KT 30/11 A3024 RMK A01 T02990113  RH  033%=      5-min Rain = 0
KGU1 131624Z 08012KT 30/11 A3024 RMK A01 T02990114  RH  033%=      5-min Rain = 0
KGU1 131625Z 08008KT 30/11 A3024 RMK A01 T02980114  RH  033%=      5-min Rain = 0
KGU1 131626Z 08009KT 30/11 A3024 RMK A01 T02970114  RH  033%=      5-min Rain = 0
KGU1 131627Z 09008KT 30/11 A3024 RMK A01 T02950113  RH  034%=      5-min Rain = 0
KGU1 131628Z 09006KT 30/11 A3025 RMK A01 T02960114  RH  034%=      5-min Rain = 0
KGU1 131629Z 10007KT 30/12 A3025 RMK A01 T02960116  RH  034%=      5-min Rain = 0
KGU1 131630Z 08007KT 30/12 A3025 RMK A01 T02960117  RH  034%=      5-min Rain = 0
KGU1 131631Z 09008KT 30/12 A3025 RMK A01 T02990119  RH  034%=      5-min Rain = 0
KGU1 131632Z 07008KT 30/12 A3025 RMK A01 T03010117  RH  033%=      5-min Rain = 0
KGU1 131633Z 05008KT 30/11 A3025 RMK A01 T03020112  RH  032%=      5-min Rain = 0
KGU1 131634Z 05007KT 30/11 A3025 RMK A01 T03020112  RH  032%=      5-min Rain = 0
KGU1 131635Z 07005KT 30/11 A3025 RMK A01 T03020110  RH  032%=      5-min Rain = 0
KGU1 131636Z 08005KT 30/11 A3025 RMK A01 T03000108  RH  032%=      5-min Rain = 0
KGU1 131637Z 08009KT 30/11 A3025 RMK A01 T02990113  RH  033%=      5-min Rain = 0
KGU1 131638Z 08009KT 30/12 A3025 RMK A01 T02990116  RH  033%=      5-min Rain = 0
KGU1 131639Z 09010KT 30/12 A3025 RMK A01 T02990116  RH  034%=      5-min Rain = 0
KGU1 131640Z 09010KT 30/11 A3025 RMK A01 T02990114  RH  033%=      5-min Rain = 0
KGU1 131641Z 08008KT 30/12 A3025 RMK A01 T02980115  RH  033%=      5-min Rain = 0
KGU1 131642Z 09009KT 30/12 A3025 RMK A01 T03000116  RH  033%=      5-min Rain = 0
KGU1 131643Z 08007KT 30/12 A3025 RMK A01 T03000115  RH  033%=      5-min Rain = 0
KGU1 131644Z 08009KT 30/12 A3025 RMK A01 T03000116  RH  033%=      5-min Rain = 0
KGU1 131645Z 07009KT 30/12 A3025 RMK A01 T02980116  RH  034%=      5-min Rain = 0
KGU1 131646Z 08007KT 30/12 A3025 RMK A01 T02970116  RH  034%=      5-min Rain = 0
KGU1 131647Z 09008KT 30/12 A3025 RMK A01 T02970116  RH  034%=      5-min Rain = 0
KGU1 131648Z 07010KT 30/11 A3025 RMK A01 T03010114  RH  033%=      5-min Rain = 0
KGU1 131649Z 07010KT 30/11 A3025 RMK A01 T03040112  RH  032%=      5-min Rain = 0
KGU1 131650Z 07006KT 30/11 A3025 RMK A01 T03030111  RH  032%=      5-min Rain = 0
KGU1 131651Z 08010KT 30/11 A3025 RMK A01 T03040111  RH  032%=      5-min Rain = 0
KGU1 131652Z 08006G11KT 30/11 A3025 RMK A01 T03030111  RH  032%=      5-min Rain = 0
KGU1 131653Z 10007KT 30/11 A3025 RMK A01 T03020112  RH  032%=      5-min Rain = 0
KGU1 131654Z 10007KT 30/11 A3025 RMK A01 T03000111  RH  032%=      5-min Rain = 0
KGU1 131655Z 09008KT 30/11 A3025 RMK A01 T02990114  RH  033%=      5-min Rain = 0
KGU1 131656Z 09007KT 30/12 A3025 RMK A01 T03010116  RH  033%=      5-min Rain = 0
KGU1 131657Z 07005KT 30/12 A3025 RMK A01 T03020117  RH  033%=      5-min Rain = 0
KGU1 131658Z 06010KT 30/11 A3025 RMK A01 T03030112  RH  032%=      5-min Rain = 0
KGU1 131659Z 07009KT 30/11 A3025 RMK A01 T03020110  RH  032%=      5-min Rain = 0
KGU1 131700Z 06008KT 30/11 A3025 RMK A01 T03030110  RH  031%=      5-min Rain = 0
KGU1 131701Z 05006KT 30/11 A3025 RMK A01 T03020109  RH  031%=      5-min Rain = 0
KGU1 131702Z 06006KT 30/11 A3025 RMK A01 T03040109  RH  031%=      5-min Rain = 0
KGU1 131703Z 04008KT 30/11 A3025 RMK A01 T03040110  RH  031%=      5-min Rain = 0
KGU1 131704Z 03006KT 31/11 A3025 RMK A01 T03050108  RH  031%=      5-min Rain = 0
KGU1 131705Z 07003KT 31/11 A3025 RMK A01 T03060111  RH  031%=      5-min Rain = 0
KGU1 131706Z 07007KT 31/12 A3025 RMK A01 T03080115  RH  032%=      5-min Rain = 0
KGU1 131707Z 08009KT 31/11 A3025 RMK A01 T03090111  RH  031%=      5-min Rain = 0
KGU1 131708Z 06009KT 31/11 A3025 RMK A01 T03080109  RH  030%=      5-min Rain = 0
KGU1 131709Z 05008KT 31/11 A3025 RMK A01 T03070105  RH  030%=      5-min Rain = 0
KGU1 131710Z 07010KT 31/11 A3025 RMK A01 T03090108  RH  030%=      5-min Rain = 0
KGU1 131711Z 07010KT 31/11 A3025 RMK A01 T03100109  RH  030%=      5-min Rain = 0
KGU1 131712Z 06009KT 31/11 A3025 RMK A01 T03080110  RH  030%=      5-min Rain = 0
KGU1 131713Z 06008KT 31/11 A3025 RMK A01 T03080106  RH  030%=      5-min Rain = 0
KGU1 131714Z 06007KT 31/11 A3025 RMK A01 T03080111  RH  031%=      5-min Rain = 0
KGU1 131715Z 06008KT 31/11 A3025 RMK A01 T03090111  RH  031%=      5-min Rain = 0
KGU1 131716Z 07008KT 31/11 A3025 RMK A01 T03050110  RH  031%=      5-min Rain = 0
KGU1 131717Z 07009KT 30/11 A3025 RMK A01 T03040110  RH  031%=      5-min Rain = 0
KGU1 131718Z 06007KT 30/11 A3025 RMK A01 T03030110  RH  031%=      5-min Rain = 0
KGU1 131719Z 07005KT 30/11 A3025 RMK A01 T03040110  RH  031%=      5-min Rain = 0
KGU1 131720Z 08005KT 31/11 A3025 RMK A01 T03050112  RH  032%=      5-min Rain = 0
KGU1 131721Z 11005KT 31/11 A3025 RMK A01 T03060114  RH  032%=      5-min Rain = 0
KGU1 131722Z 10006KT 31/11 A3025 RMK A01 T03050114  RH  032%=      5-min Rain = 0
KGU1 131723Z 10005KT 31/11 A3025 RMK A01 T03060114  RH  032%=      5-min Rain = 0
KGU1 131724Z 07005KT 30/11 A3025 RMK A01 T03040114  RH  032%=      5-min Rain = 0
KGU1 131725Z 07006G11KT 31/11 A3025 RMK A01 T03070112  RH  031%=      5-min Rain = 0
KGU1 131726Z 07011KT 31/11 A3025 RMK A01 T03080110  RH  031%=      5-min Rain = 0
KGU1 131727Z 06012KT 31/11 A3025 RMK A01 T03070109  RH  031%=      5-min Rain = 0
KGU1 131728Z 07010KT 31/11 A3025 RMK A01 T03060109  RH  031%=      5-min Rain = 0
KGU1 131729Z 07009KT 31/11 A3025 RMK A01 T03050108  RH  031%=      5-min Rain = 0
KGU1 131730Z 06006KT 30/11 A3025 RMK A01 T03040109  RH  031%=      5-min Rain = 0
KGU1 131731Z 06005KT 30/11 A3025 RMK A01 T03030109  RH  031%=      5-min Rain = 0
KGU1 131732Z 06006KT 30/11 A3025 RMK A01 T03040110  RH  031%=      5-min Rain = 0
KGU1 131733Z 08005KT 30/11 A3025 RMK A01 T03040111  RH  032%=      5-min Rain = 0
KGU1 131734Z 09006KT 31/11 A3025 RMK A01 T03050112  RH  032%=      5-min Rain = 0
KGU1 131735Z 09006KT 31/11 A3025 RMK A01 T03070113  RH  031%=      5-min Rain = 0
KGU1 131736Z 11004KT 31/11 A3025 RMK A01 T03050112  RH  032%=      5-min Rain = 0
KGU1 131737Z 06003KT 30/11 A3025 RMK A01 T03030114  RH  032%=      5-min Rain = 0
KGU1 131738Z 04007KT 31/11 A3025 RMK A01 T03060112  RH  031%=      5-min Rain = 0
KGU1 131739Z 04007KT 31/11 A3025 RMK A01 T03070110  RH  031%=      5-min Rain = 0
KGU1 131740Z 07010G21KT 31/11 A3025 RMK A01 T03080112  RH  031%=      5-min Rain = 0
KGU1 131741Z 05008KT 31/11 A3025 RMK A01 T03090108  RH  030%=      5-min Rain = 0
KGU1 131742Z 04007KT 31/11 A3025 RMK A01 T03100105  RH  029%=      5-min Rain = 0
KGU1 131743Z 04009KT 31/11 A3025 RMK A01 T03100105  RH  029%=      5-min Rain = 0
KGU1 131744Z 03008KT 31/10 A3025 RMK A01 T03100104  RH  029%=      5-min Rain = 0
KGU1 131745Z 06007KT 31/10 A3025 RMK A01 T03100103  RH  029%=      5-min Rain = 0
KGU1 131746Z 07009KT 31/11 A3025 RMK A01 T03110107  RH  029%=      5-min Rain = 0
KGU1 131747Z 06009KT 31/11 A3025 RMK A01 T03100106  RH  029%=      5-min Rain = 0
KGU1 131748Z 06005KT 31/11 A3025 RMK A01 T03070106  RH  030%=      5-min Rain = 0
KGU1 131749Z 07007G12KT 31/11 A3025 RMK A01 T03080107  RH  030%=      5-min Rain = 0
KGU1 131750Z 06011KT 31/11 A3025 RMK A01 T03110110  RH  030%=      5-min Rain = 0
KGU1 131751Z 06009KT 31/11 A3025 RMK A01 T03110111  RH  030%=      5-min Rain = 0
KGU1 131752Z 07010KT 31/11 A3025 RMK A01 T03120113  RH  031%=      5-min Rain = 0
KGU1 131753Z 08012KT 32/12 A3025 RMK A01 T03160115  RH  030%=      5-min Rain = 0
KGU1 131754Z 07012KT 32/11 A3025 RMK A01 T03170111  RH  029%=      5-min Rain = 0
KGU1 131755Z 06009KT 32/11 A3025 RMK A01 T03160106  RH  028%=      5-min Rain = 0
KGU1 131756Z 07008KT 32/11 A3025 RMK A01 T03170108  RH  029%=      5-min Rain = 0
KGU1 131757Z 06008KT 32/10 A3025 RMK A01 T03190104  RH  028%=      5-min Rain = 0
KGU1 131758Z 05008KT 32/10 A3025 RMK A01 T03150104  RH  028%=      5-min Rain = 0
KGU1 131759Z 05009KT 31/11 A3025 RMK A01 T03140107  RH  029%=      5-min Rain = 0
KGU1 131800Z 06008KT 32/11 A3025 RMK A01 T03170108  RH  029%=      5-min Rain = 0
KGU1 131801Z 09010KT 32/11 A3025 RMK A01 T03190109  RH  028%=      5-min Rain = 0
KGU1 131802Z 05008KT 32/11 A3025 RMK A01 T03210108  RH  028%=      5-min Rain = 0
KGU1 131803Z 07007KT 32/11 A3025 RMK A01 T03180110  RH  029%=      5-min Rain = 0
KGU1 131804Z 08010KT 32/11 A3025 RMK A01 T03160112  RH  030%=      5-min Rain = 0
KGU1 131805Z 08008KT 32/11 A3025 RMK A01 T03180112  RH  029%=      5-min Rain = 0
KGU1 131806Z 07011G16KT 32/11 A3025 RMK A01 T03230113  RH  029%=      5-min Rain = 0
KGU1 131807Z 09010G15KT 32/11 A3025 RMK A01 T03190110  RH  029%=      5-min Rain = 0
KGU1 131808Z 10009KT 32/11 A3025 RMK A01 T03150110  RH  029%=      5-min Rain = 0
KGU1 131809Z 12007KT 31/11 A3025 RMK A01 T03140110  RH  030%=      5-min Rain = 0
KGU1 131810Z 11007G12KT 32/11 A3025 RMK A01 T03150109  RH  029%=      5-min Rain = 0
KGU1 131811Z 10013KT 32/11 A3025 RMK A01 T03170110  RH  029%=      5-min Rain = 0
KGU1 131812Z 11009KT 32/11 A3025 RMK A01 T03160110  RH  029%=      5-min Rain = 0
KGU1 131813Z 10012KT 32/11 A3025 RMK A01 T03170110  RH  029%=      5-min Rain = 0
KGU1 131814Z 09011KT 32/11 A3025 RMK A01 T03170109  RH  029%=      5-min Rain = 0
KGU1 131815Z 08011KT 32/11 A3025 RMK A01 T03180110  RH  029%=      5-min Rain = 0
KGU1 131816Z 09011KT 32/11 A3025 RMK A01 T03180110  RH  029%=      5-min Rain = 0
KGU1 131817Z 08012KT 32/11 A3025 RMK A01 T03200109  RH  028%=      5-min Rain = 0
KGU1 131818Z 07010KT 32/11 A3025 RMK A01 T03200111  RH  029%=      5-min Rain = 0
KGU1 131819Z 09008KT 32/11 A3025 RMK A01 T03210112  RH  029%=      5-min Rain = 0
KGU1 131820Z 09009KT 32/11 A3025 RMK A01 T03230113  RH  029%=      5-min Rain = 0
KGU1 131821Z 09007KT 32/11 A3024 RMK A01 T03230112  RH  028%=      5-min Rain = 0
KGU1 131822Z 07009KT 32/11 A3024 RMK A01 T03230114  RH  029%=      5-min Rain = 0
KGU1 131823Z 08010KT 33/12 A3024 RMK A01 T03250115  RH  029%=      5-min Rain = 0
KGU1 131824Z 07010G15KT 33/11 A3025 RMK A01 T03300110  RH  027%=      5-min Rain = 0
KGU1 131825Z 06012KT 33/11 A3025 RMK A01 T03290107  RH  027%=      5-min Rain = 0
KGU1 131826Z 06009KT 32/11 A3025 RMK A01 T03230108  RH  028%=      5-min Rain = 0
KGU1 131827Z 06011KT 33/11 A3025 RMK A01 T03250109  RH  028%=      5-min Rain = 0
KGU1 131828Z 06011KT 33/11 A3025 RMK A01 T03290107  RH  027%=      5-min Rain = 0
KGU1 131829Z 07010KT 32/11 A3025 RMK A01 T03240107  RH  027%=      5-min Rain = 0
KGU1 131830Z 08009KT 32/11 A3025 RMK A01 T03200106  RH  028%=      5-min Rain = 0
KGU1 131831Z 07006KT 32/11 A3025 RMK A01 T03210108  RH  028%=      5-min Rain = 0
KGU1 131832Z 09008G13KT 32/11 A3025 RMK A01 T03220106  RH  027%=      5-min Rain = 0
KGU1 131833Z 06012G17KT 32/11 A3025 RMK A01 T03190108  RH  028%=      5-min Rain = 0
KGU1 131834Z 06010KT 32/11 A3025 RMK A01 T03160108  RH  029%=      5-min Rain = 0
KGU1 131835Z 05009KT 32/11 A3025 RMK A01 T03150107  RH  029%=      5-min Rain = 0
KGU1 131836Z 07015KT 31/11 A3024 RMK A01 T03120108  RH  030%=      5-min Rain = 0
KGU1 131837Z 06012KT 31/11 A3025 RMK A01 T03130108  RH  029%=      5-min Rain = 0
KGU1 131838Z 06012KT 31/11 A3025 RMK A01 T03140108  RH  029%=      5-min Rain = 0
KGU1 131839Z 07011G16KT 31/11 A3025 RMK A01 T03140108  RH  029%=      5-min Rain = 0
KGU1 131840Z 09013KT 32/11 A3024 RMK A01 T03160106  RH  029%=      5-min Rain = 0
KGU1 131841Z 09011KT 32/11 A3025 RMK A01 T03160106  RH  028%=      5-min Rain = 0
KGU1 131842Z 08010KT 32/11 A3025 RMK A01 T03160105  RH  028%=      5-min Rain = 0
KGU1 131843Z 10009KT 31/10 A3025 RMK A01 T03130103  RH  028%=      5-min Rain = 0
KGU1 131844Z 10010KT 31/10 A3025 RMK A01 T03110100  RH  028%=      5-min Rain = 0
KGU1 131845Z 09012KT 31/10 A3025 RMK A01 T03140099  RH  027%=      5-min Rain = 0
KGU1 131846Z 09010KT 32/10 A3025 RMK A01 T03150096  RH  027%=      5-min Rain = 0
KGU1 131847Z 09008KT 31/10 A3025 RMK A01 T03130095  RH  027%=      5-min Rain = 0
KGU1 131848Z 11009KT 31/10 A3025 RMK A01 T03120097  RH  027%=      5-min Rain = 0
KGU1 131849Z 10007KT 31/10 A3025 RMK A01 T03120095  RH  027%=      5-min Rain = 0
KGU1 131850Z 07006KT 31/09 A3025 RMK A01 T03090094  RH  027%=      5-min Rain = 0
KGU1 131851Z 06005KT 31/09 A3025 RMK A01 T03090092  RH  027%=      5-min Rain = 0
KGU1 131852Z 06004KT 31/09 A3025 RMK A01 T03080093  RH  027%=      5-min Rain = 0
KGU1 131853Z 07008KT 31/10 A3025 RMK A01 T03080098  RH  028%=      5-min Rain = 0
KGU1 131854Z 08011KT 31/10 A3025 RMK A01 T03100101  RH  029%=      5-min Rain = 0
KGU1 131855Z 07012KT 31/10 A3025 RMK A01 T03100103  RH  029%=      5-min Rain = 0
KGU1 131856Z 05012KT 31/10 A3025 RMK A01 T03090101  RH  029%=      5-min Rain = 0
KGU1 131857Z 05008KT 31/10 A3025 RMK A01 T03080102  RH  029%=      5-min Rain = 0
KGU1 131858Z 07008KT 31/10 A3025 RMK A01 T03060103  RH  029%=      5-min Rain = 0
KGU1 131859Z 06012KT 31/10 A3025 RMK A01 T03080103  RH  029%=      5-min Rain = 0
KGU1 131900Z 06010KT 31/10 A3025 RMK A01 T03080102  RH  029%=      5-min Rain = 0
KGU1 131901Z 06008KT 31/10 A3025 RMK A01 T03070102  RH  029%=      5-min Rain = 0
KGU1 131902Z 06007KT 31/10 A3025 RMK A01 T03070103  RH  029%=      5-min Rain = 0
KGU1 131903Z 08007KT 31/11 A3025 RMK A01 T03070105  RH  030%=      5-min Rain = 0
KGU1 131904Z 07006KT 31/11 A3025 RMK A01 T03080106  RH  030%=      5-min Rain = 0
KGU1 131905Z 09007KT 31/11 A3025 RMK A01 T03070107  RH  030%=      5-min Rain = 0
KGU1 131906Z 09008KT 31/11 A3025 RMK A01 T03060107  RH  030%=      5-min Rain = 0
KGU1 131907Z 08008KT 31/11 A3025 RMK A01 T03060112  RH  031%=      5-min Rain = 0
KGU1 131908Z 04009KT 31/11 A3025 RMK A01 T03070106  RH  030%=      5-min Rain = 0
KGU1 131909Z 05011KT 31/10 A3025 RMK A01 T03080095  RH  028%=      5-min Rain = 0
KGU1 131910Z 05010KT 31/09 A3025 RMK A01 T03070091  RH  027%=      5-min Rain = 0
KGU1 131911Z 04007KT 31/09 A3025 RMK A01 T03060092  RH  027%=      5-min Rain = 0
KGU1 131912Z 04007KT 31/09 A3025 RMK A01 T03060089  RH  027%=      5-min Rain = 0
KGU1 131913Z 04005KT 31/09 A3025 RMK A01 T03050089  RH  027%=      5-min Rain = 0
KGU1 131914Z 02004KT 30/09 A3025 RMK A01 T03040090  RH  027%=      5-min Rain = 0
KGU1 131915Z 05005KT 30/09 A3025 RMK A01 T03040090  RH  027%=      5-min Rain = 0
KGU1 131916Z 06009KT 31/10 A3025 RMK A01 T03050096  RH  028%=      5-min Rain = 0
KGU1 131917Z 07011KT 30/10 A3025 RMK A01 T03040100  RH  029%=      5-min Rain = 0
KGU1 131918Z 06009KT 30/11 A3025 RMK A01 T03020105  RH  031%=      5-min Rain = 0
KGU1 131919Z 06010KT 30/11 A3025 RMK A01 T03000110  RH  032%=      5-min Rain = 0
KGU1 131920Z 08006KT 30/11 A3025 RMK A01 T02990110  RH  032%=      5-min Rain = 0
KGU1 131921Z 08007KT 30/11 A3025 RMK A01 T02980111  RH  033%=      5-min Rain = 0
KGU1 131922Z 07007KT 30/11 A3025 RMK A01 T02980112  RH  033%=      5-min Rain = 0
KGU1 131923Z 05007KT 30/11 A3025 RMK A01 T02990112  RH  033%=      5-min Rain = 0
KGU1 131924Z 05006KT 30/11 A3025 RMK A01 T02990107  RH  031%=      5-min Rain = 0
KGU1 131925Z 04006KT 30/11 A3025 RMK A01 T03000107  RH  031%=      5-min Rain = 0
KGU1 131926Z 04005KT 30/10 A3025 RMK A01 T03010102  RH  030%=      5-min Rain = 0
KGU1 131927Z 04004KT 30/10 A3024 RMK A01 T03000103  RH  030%=      5-min Rain = 0
KGU1 131928Z 05005KT 30/10 A3024 RMK A01 T03000102  RH  030%=      5-min Rain = 0
KGU1 131929Z 05007KT 30/10 A3024 RMK A01 T03010103  RH  030%=      5-min Rain = 0
KGU1 131930Z 05010KT 30/11 A3024 RMK A01 T03030105  RH  031%=      5-min Rain = 0
KGU1 131931Z 03010KT 30/11 A3024 RMK A01 T03020105  RH  030%=      5-min Rain = 0
KGU1 131932Z 02007KT 30/11 A3024 RMK A01 T03030106  RH  031%=      5-min Rain = 0
KGU1 131933Z 01005KT 30/11 A3024 RMK A01 T03030105  RH  030%=      5-min Rain = 0
KGU1 131934Z 05005KT 30/11 A3024 RMK A01 T03030105  RH  030%=      5-min Rain = 0
KGU1 131935Z 04006KT 30/11 A3024 RMK A01 T03030107  RH  031%=      5-min Rain = 0
KGU1 131936Z 06006KT 31/11 A3024 RMK A01 T03080107  RH  030%=      5-min Rain = 0
KGU1 131937Z 07006KT 31/10 A3024 RMK A01 T03120104  RH  029%=      5-min Rain = 0
KGU1 131938Z 05008KT 32/10 A3024 RMK A01 T03150104  RH  028%=      5-min Rain = 0
KGU1 131939Z 05010KT 32/10 A3024 RMK A01 T03190103  RH  027%=      5-min Rain = 0
KGU1 131940Z 06006G11KT 32/10 A3024 RMK A01 T03200102  RH  027%=      5-min Rain = 0
KGU1 131941Z 04009KT 32/10 A3024 RMK A01 T03210100  RH  026%=      5-min Rain = 0
KGU1 131942Z 05008KT 33/10 A3024 RMK A01 T03250103  RH  027%=      5-min Rain = 0
KGU1 131943Z 07010KT 33/10 A3024 RMK A01 T03310102  RH  025%=      5-min Rain = 0
KGU1 131944Z 08009KT 33/10 A3024 RMK A01 T03300100  RH  025%=      5-min Rain = 0
KGU1 131945Z 09009KT 33/10 A3023 RMK A01 T03290101  RH  025%=      5-min Rain = 0
KGU1 131946Z 09009KT 33/10 A3023 RMK A01 T03310101  RH  025%=      5-min Rain = 0
KGU1 131947Z 07011KT 34/10 A3023 RMK A01 T03350099  RH  024%=      5-min Rain = 0
KGU1 131948Z 04010KT 33/10 A3024 RMK A01 T03320098  RH  025%=      5-min Rain = 0
KGU1 131949Z 03011KT 33/10 A3024 RMK A01 T03300095  RH  024%=      5-min Rain = 0
KGU1 131950Z 02007KT 32/09 A3024 RMK A01 T03230094  RH  025%=      5-min Rain = 0
KGU1 131951Z 04008KT 32/10 A3024 RMK A01 T03220095  RH  025%=      5-min Rain = 0
KGU1 131952Z 03006KT 32/10 A3024 RMK A01 T03240095  RH  025%=      5-min Rain = 0
KGU1 131953Z 04005KT 32/09 A3023 RMK A01 T03230092  RH  025%=      5-min Rain = 0
KGU1 131954Z 02008KT 32/09 A3023 RMK A01 T03240091  RH  025%=      5-min Rain = 0
KGU1 131955Z 01008KT 32/09 A3023 RMK A01 T03210088  RH  024%=      5-min Rain = 0
KGU1 131956Z 03010KT 32/09 A3023 RMK A01 T03160092  RH  026%=      5-min Rain = 0
KGU1 131957Z 04010KT 32/09 A3023 RMK A01 T03160092  RH  026%=      5-min Rain = 0
KGU1 131958Z 04010KT 32/09 A3023 RMK A01 T03150093  RH  026%=      5-min Rain = 0
KGU1 131959Z 06009KT 32/09 A3023 RMK A01 T03170093  RH  026%=      5-min Rain = 0
KGU1 132000Z 04008KT 32/09 A3023 RMK A01 T03160092  RH  026%=      5-min Rain = 0
KGU1 132001Z 04008KT 32/09 A3023 RMK A01 T03150092  RH  026%=      5-min Rain = 0
KGU1 132002Z 04009KT 32/09 A3023 RMK A01 T03150093  RH  026%=      5-min Rain = 0
KGU1 132003Z 07011KT 32/09 A3023 RMK A01 T03160089  RH  025%=      5-min Rain = 0
KGU1 132004Z 08009KT 32/09 A3023 RMK A01 T03180088  RH  025%=      5-min Rain = 0
KGU1 132005Z 07008KT 32/08 A3023 RMK A01 T03170079  RH  023%=      5-min Rain = 0
KGU1 132006Z 06007KT 31/08 A3023 RMK A01 T03140080  RH  024%=      5-min Rain = 0
KGU1 132007Z 04010KT 32/09 A3023 RMK A01 T03160089  RH  025%=      5-min Rain = 0
KGU1 132008Z 05011KT 32/09 A3023 RMK A01 T03150088  RH  025%=      5-min Rain = 0
KGU1 132009Z 04010KT 31/09 A3023 RMK A01 T03130088  RH  026%=      5-min Rain = 0
KGU1 132010Z 05008KT 31/09 A3023 RMK A01 T03140086  RH  025%=      5-min Rain = 0
KGU1 132011Z 04006KT 31/08 A3023 RMK A01 T03130082  RH  024%=      5-min Rain = 0
KGU1 132012Z 05006KT 31/08 A3023 RMK A01 T03100081  RH  025%=      5-min Rain = 0
KGU1 132013Z 08008KT 31/08 A3023 RMK A01 T03100081  RH  025%=      5-min Rain = 0
KGU1 132014Z 06008KT 31/08 A3023 RMK A01 T03100080  RH  025%=      5-min Rain = 0
KGU1 132015Z 03011KT 31/08 A3023 RMK A01 T03100081  RH  025%=      5-min Rain = 0
KGU1 132016Z 03010KT 31/08 A3023 RMK A01 T03090081  RH  025%=      5-min Rain = 0
KGU1 132017Z 03008KT 31/09 A3023 RMK A01 T03080085  RH  026%=      5-min Rain = 0
KGU1 132018Z 03005KT 31/09 A3023 RMK A01 T03070085  RH  026%=      5-min Rain = 0
KGU1 132019Z 03006KT 31/08 A3023 RMK A01 T03070083  RH  025%=      5-min Rain = 0
KGU1 132020Z 01007KT 31/08 A3023 RMK A01 T03070084  RH  026%=      5-min Rain = 0
KGU1 132021Z 34012G19KT 31/10 A3024 RMK A01 T03060099  RH  029%=      5-min Rain = 0
KGU1 132022Z 35014KT 30/11 A3024 RMK A01 T02980110  RH  032%=      5-min Rain = 0
KGU1 132023Z 33017KT 29/10 A3024 RMK A01 T02900100  RH  032%=      5-min Rain = 0
KGU1 132024Z 34015KT 29/09 A3024 RMK A01 T02880091  RH  030%=      5-min Rain = 0
KGU1 132025Z 34015G23KT 29/09 A3023 RMK A01 T02870088  RH  030%=      5-min Rain = 0
KGU1 132026Z 33022KT 28/09 A3024 RMK A01 T02830087  RH  030%=      5-min Rain = 0
KGU1 132027Z 33022G29KT 28/10 A3023 RMK A01 T02780097  RH  033%=      5-min Rain = 0
KGU1 132028Z 33022G27KT 27/12 A3024 RMK A01 T02690115  RH  040%=      5-min Rain = 0
KGU1 132029Z 33021KT 26/12 A3024 RMK A01 T02590122  RH  044%=      5-min Rain = 0
KGU1 132030Z 33019G24KT 25/13 A3024 RMK A01 T02520127  RH  048%=      5-min Rain = 0
KGU1 132031Z 33021KT 25/13 A3024 RMK A01 T02450130  RH  051%=      5-min Rain = 0
KGU1 132032Z 33021KT 24/12 A3024 RMK A01 T02420120  RH  048%=      5-min Rain = 0
KGU1 132033Z 33020KT 24/12 A3024 RMK A01 T02380124  RH  051%=      5-min Rain = 0
KGU1 132034Z 33022KT 23/12 A3024 RMK A01 T02340122  RH  051%=      5-min Rain = 0
KGU1 132035Z 33022KT 23/12 A3024 RMK A01 T02330120  RH  051%=      5-min Rain = 0
KGU1 132036Z 33021KT 23/12 A3024 RMK A01 T02320121  RH  051%=      5-min Rain = 0
KGU1 132037Z 33024KT 23/12 A3024 RMK A01 T02310119  RH  051%=      5-min Rain = 0
KGU1 132038Z 33024KT 23/12 A3024 RMK A01 T02290122  RH  053%=      5-min Rain = 0
KGU1 132039Z 33021KT 22/13 A3024 RMK A01 T02230128  RH  057%=      5-min Rain = 0
KGU1 132040Z 33021KT 22/13 A3024 RMK A01 T02200127  RH  058%=      5-min Rain = 0
KGU1 132041Z 33022KT 22/13 A3024 RMK A01 T02180127  RH  059%=      5-min Rain = 0
KGU1 132042Z 33023KT 21/13 A3024 RMK A01 T02140129  RH  061%=      5-min Rain = 0
KGU1 132043Z 33024KT 21/13 A3024 RMK A01 T02110129  RH  062%=      5-min Rain = 0.01
KGU1 132044Z 34021KT 21/13 A3024 RMK A01 T02090128  RH  062%=      5-min Rain = 0
KGU1 132045Z 34017KT 21/13 A3024 RMK A01 T02080131  RH  064%=      5-min Rain = 0.01
KGU1 132046Z 34017KT 21/13 A3023 RMK A01 T02070130  RH  064%=      5-min Rain = 0
KGU1 132047Z 33016KT 21/13 A3023 RMK A01 T02090129  RH  063%=      5-min Rain = 0
KGU1 132048Z 33014KT 21/13 A3023 RMK A01 T02100133  RH  064%=      5-min Rain = 0
KGU1 132049Z 33018KT 21/12 A3023 RMK A01 T02130120  RH  058%=      5-min Rain = 0.01
KGU1 132050Z 34016KT 22/13 A3023 RMK A01 T02190127  RH  058%=      5-min Rain = 0
KGU1 132051Z 34011KT 22/12 A3023 RMK A01 T02180124  RH  057%=      5-min Rain = 0
KGU1 132052Z 33013KT 22/12 A3023 RMK A01 T02210124  RH  056%=      5-min Rain = 0
KGU1 132053Z 32012KT 22/13 A3023 RMK A01 T02220125  RH  056%=      5-min Rain = 0
KGU1 132054Z 30012G17KT 22/12 A3023 RMK A01 T02240119  RH  053%=      5-min Rain = 0.01
KGU1 132055Z 31014KT 22/13 A3023 RMK A01 T02210129  RH  058%=      5-min Rain = 0
KGU1 132056Z 30016KT 22/13 A3023 RMK A01 T02160132  RH  061%=      5-min Rain = 0
KGU1 132057Z 30015KT 22/13 A3023 RMK A01 T02150131  RH  061%=      5-min Rain = 0
KGU1 132058Z 31016KT 21/13 A3023 RMK A01 T02130132  RH  062%=      5-min Rain = 0
KGU1 132059Z 31015KT 21/13 A3023 RMK A01 T02140127  RH  060%=      5-min Rain = 0
KGU1 132100Z 30016KT 22/13 A3023 RMK A01 T02150126  RH  059%=      5-min Rain = 0
KGU1 132101Z 30015KT 22/13 A3023 RMK A01 T02150129  RH  060%=      5-min Rain = 0
KGU1 132102Z 30014KT 22/13 A3023 RMK A01 T02150131  RH  061%=      5-min Rain = 0
KGU1 132103Z 30013KT 22/13 A3023 RMK A01 T02150132  RH  062%=      5-min Rain = 0
KGU1 132104Z 30014KT 21/14 A3023 RMK A01 T02140135  RH  063%=      5-min Rain = 0
KGU1 132105Z 30014KT 21/13 A3023 RMK A01 T02140133  RH  063%=      5-min Rain = 0
KGU1 132106Z 30015KT 21/13 A3023 RMK A01 T02140131  RH  062%=      5-min Rain = 0
KGU1 132107Z 30013KT 22/13 A3023 RMK A01 T02150131  RH  061%=      5-min Rain = 0
KGU1 132108Z 30011KT 22/13 A3023 RMK A01 T02160133  RH  062%=      5-min Rain = 0
KGU1 132109Z 30011KT 22/14 A3022 RMK A01 T02160137  RH  063%=      5-min Rain = 0
KGU1 132110Z 30013KT 22/14 A3022 RMK A01 T02170137  RH  063%=      5-min Rain = 0
KGU1 132111Z 30011KT 22/14 A3022 RMK A01 T02180138  RH  063%=      5-min Rain = 0
KGU1 132112Z 31011KT 22/15 A3022 RMK A01 T02170149  RH  068%=      5-min Rain = 0
KGU1 132113Z 30015KT 22/15 A3022 RMK A01 T02160146  RH  068%=      5-min Rain = 0
KGU1 132114Z 31014KT 22/14 A3022 RMK A01 T02160143  RH  066%=      5-min Rain = 0
KGU1 132115Z 31013KT 22/15 A3022 RMK A01 T02170145  RH  066%=      5-min Rain = 0
KGU1 132116Z 31010KT 22/14 A3022 RMK A01 T02170144  RH  066%=      5-min Rain = 0
KGU1 132117Z 30010KT 22/15 A3022 RMK A01 T02160147  RH  068%=      5-min Rain = 0
KGU1 132118Z 30012KT 22/15 A3022 RMK A01 T02180145  RH  066%=      5-min Rain = 0
KGU1 132119Z 30013KT 22/14 A3022 RMK A01 T02190144  RH  065%=      5-min Rain = 0
KGU1 132120Z 30012KT 22/14 A3022 RMK A01 T02190142  RH  064%=      5-min Rain = 0
KGU1 132121Z 30015KT 22/14 A3022 RMK A01 T02220136  RH  061%=      5-min Rain = 0
KGU1 132122Z 30013KT 23/13 A3022 RMK A01 T02250132  RH  058%=      5-min Rain = 0
KGU1 132123Z 31011KT 23/13 A3022 RMK A01 T02280126  RH  055%=      5-min Rain = 0
KGU1 132124Z 30012KT 23/13 A3022 RMK A01 T02300128  RH  055%=      5-min Rain = 0
KGU1 132125Z 30011KT 23/13 A3022 RMK A01 T02310129  RH  055%=      5-min Rain = 0
KGU1 132126Z 30013KT 23/13 A3022 RMK A01 T02310131  RH  055%=      5-min Rain = 0
KGU1 132127Z 30010KT 23/13 A3022 RMK A01 T02310133  RH  056%=      5-min Rain = 0
KGU1 132128Z 31009KT 23/13 A3022 RMK A01 T02330130  RH  054%=      5-min Rain = 0
KGU1 132129Z 31007KT 24/14 A3022 RMK A01 T02350137  RH  056%=      5-min Rain = 0
KGU1 132130Z 31008KT 24/13 A3022 RMK A01 T02350134  RH  055%=      5-min Rain = 0
KGU1 132131Z 31007KT 24/13 A3022 RMK A01 T02380132  RH  053%=      5-min Rain = 0
KGU1 132132Z 31007KT 24/14 A3022 RMK A01 T02390136  RH  054%=      5-min Rain = 0
KGU1 132133Z 31007KT 24/14 A3022 RMK A01 T02390140  RH  056%=      5-min Rain = 0
KGU1 132134Z 32006KT 24/14 A3022 RMK A01 T02390143  RH  057%=      5-min Rain = 0
KGU1 132135Z 32006KT 24/15 A3022 RMK A01 T02390145  RH  058%=      5-min Rain = 0
KGU1 132136Z 31005KT 24/14 A3022 RMK A01 T02410144  RH  057%=      5-min Rain = 0
KGU1 132137Z 31005KT 24/15 A3022 RMK A01 T02430145  RH  057%=      5-min Rain = 0
KGU1 132138Z 31005KT 24/15 A3022 RMK A01 T02440147  RH  057%=      5-min Rain = 0
KGU1 132139Z 31006KT 25/15 A3022 RMK A01 T02450147  RH  057%=      5-min Rain = 0
KGU1 132140Z 32007KT 25/15 A3022 RMK A01 T02460147  RH  057%=      5-min Rain = 0
KGU1 132141Z 31006KT 25/15 A3022 RMK A01 T02470148  RH  056%=      5-min Rain = 0
KGU1 132142Z 30007KT 25/15 A3022 RMK A01 T02470149  RH  057%=      5-min Rain = 0
KGU1 132143Z 30007KT 25/14 A3022 RMK A01 T02480138  RH  053%=      5-min Rain = 0
KGU1 132144Z 29008KT 25/14 A3022 RMK A01 T02500136  RH  051%=      5-min Rain = 0
KGU1 132145Z 29007KT 25/14 A3022 RMK A01 T02500141  RH  053%=      5-min Rain = 0
KGU1 132146Z 30007KT 25/14 A3022 RMK A01 T02490142  RH  054%=      5-min Rain = 0
KGU1 132147Z 30008KT 25/14 A3022 RMK A01 T02480144  RH  054%=      5-min Rain = 0
KGU1 132148Z 30006KT 25/13 A3022 RMK A01 T02500133  RH  050%=      5-min Rain = 0
KGU1 132149Z 29006KT 25/14 A3022 RMK A01 T02520138  RH  051%=      5-min Rain = 0
KGU1 132150Z 28006KT 25/14 A3022 RMK A01 T02520139  RH  052%=      5-min Rain = 0
KGU1 132151Z 29006KT 25/14 A3022 RMK A01 T02520142  RH  053%=      5-min Rain = 0
KGU1 132152Z 29006KT 25/14 A3022 RMK A01 T02520140  RH  052%=      5-min Rain = 0
KGU1 132153Z 29008KT 25/14 A3022 RMK A01 T02530140  RH  052%=      5-min Rain = 0
KGU1 132154Z 30008KT 25/14 A3022 RMK A01 T02540139  RH  051%=      5-min Rain = 0
KGU1 132155Z 30008KT 25/13 A3022 RMK A01 T02540133  RH  049%=      5-min Rain = 0
KGU1 132156Z 30007KT 25/14 A3022 RMK A01 T02540136  RH  050%=      5-min Rain = 0
KGU1 132157Z 30010KT 25/14 A3022 RMK A01 T02540140  RH  051%=      5-min Rain = 0.01
KGU1 132158Z 30009KT 25/14 A3022 RMK A01 T02530138  RH  051%=      5-min Rain = 0
KGU1 132159Z 30008KT 25/14 A3022 RMK A01 T02530137  RH  051%=      5-min Rain = 0
KGU1 132200Z 29009KT 25/14 A3022 RMK A01 T02540136  RH  050%=      5-min Rain = 0
KGU1 132201Z 29008KT 26/13 A3022 RMK A01 T02560134  RH  049%=      5-min Rain = 0
KGU1 132202Z 29009KT 26/13 A3022 RMK A01 T02570134  RH  048%=      5-min Rain = 0
KGU1 132203Z 29009KT 26/14 A3022 RMK A01 T02580135  RH  049%=      5-min Rain = 0
KGU1 132204Z 29009KT 26/14 A3022 RMK A01 T02570137  RH  049%=      5-min Rain = 0
KGU1 132205Z 29009KT 26/14 A3022 RMK A01 T02570139  RH  050%=      5-min Rain = 0
KGU1 132206Z 29009KT 26/14 A3022 RMK A01 T02560139  RH  050%=      5-min Rain = 0
KGU1 132207Z 29009KT 26/14 A3022 RMK A01 T02570140  RH  050%=      5-min Rain = 0
KGU1 132208Z 29009KT 26/14 A3022 RMK A01 T02570138  RH  050%=      5-min Rain = 0
KGU1 132209Z 29008KT 26/14 A3022 RMK A01 T02580141  RH  050%=      5-min Rain = 0
KGU1 132210Z 29008KT 26/14 A3022 RMK A01 T02580141  RH  051%=      5-min Rain = 0
KGU1 132211Z 29008KT 26/14 A3022 RMK A01 T02580141  RH  051%=      5-min Rain = 0
KGU1 132212Z 30008KT 26/14 A3022 RMK A01 T02580141  RH  050%=      5-min Rain = 0
KGU1 132213Z 29007KT 26/14 A3022 RMK A01 T02590136  RH  048%=      5-min Rain = 0
KGU1 132214Z 29007KT 26/14 A3022 RMK A01 T02600141  RH  050%=      5-min Rain = 0
KGU1 132215Z 29007KT 26/14 A3022 RMK A01 T02600141  RH  050%=      5-min Rain = 0
KGU1 132216Z 29007KT 26/14 A3022 RMK A01 T02600144  RH  051%=      5-min Rain = 0
KGU1 132217Z 29007KT 26/15 A3022 RMK A01 T02600145  RH  051%=      5-min Rain = 0
KGU1 132218Z 29007KT 26/15 A3022 RMK A01 T02590145  RH  052%=      5-min Rain = 0
KGU1 132219Z 28006KT 26/15 A3022 RMK A01 T02590146  RH  052%=      5-min Rain = 0
KGU1 132220Z 28006KT 26/15 A3022 RMK A01 T02590145  RH  051%=      5-min Rain = 0
KGU1 132221Z 28005KT 26/15 A3021 RMK A01 T02600147  RH  052%=      5-min Rain = 0
KGU1 132222Z 28005KT 26/15 A3021 RMK A01 T02600146  RH  052%=      5-min Rain = 0
KGU1 132223Z 28006KT 26/15 A3021 RMK A01 T02600149  RH  053%=      5-min Rain = 0
KGU1 132224Z 28006KT 26/15 A3021 RMK A01 T02600148  RH  052%=      5-min Rain = 0
KGU1 132225Z 29006KT 26/15 A3021 RMK A01 T02600146  RH  052%=      5-min Rain = 0
KGU1 132226Z 29007KT 26/15 A3021 RMK A01 T02610149  RH  052%=      5-min Rain = 0
KGU1 132227Z 29006KT 26/15 A3021 RMK A01 T02610149  RH  052%=      5-min Rain = 0
KGU1 132228Z 29005KT 26/15 A3021 RMK A01 T02610152  RH  053%=      5-min Rain = 0
KGU1 132229Z 28006KT 26/15 A3021 RMK A01 T02620149  RH  052%=      5-min Rain = 0
KGU1 132230Z 28005KT 26/14 A3021 RMK A01 T02630144  RH  050%=      5-min Rain = 0
KGU1 132231Z 29005KT 27/15 A3021 RMK A01 T02650146  RH  050%=      5-min Rain = 0
KGU1 132232Z 28005KT 27/15 A3021 RMK A01 T02650146  RH  050%=      5-min Rain = 0
KGU1 132233Z 29005KT 27/15 A3021 RMK A01 T02660149  RH  051%=      5-min Rain = 0
KGU1 132234Z 29005KT 27/15 A3021 RMK A01 T02660148  RH  051%=      5-min Rain = 0
KGU1 132235Z 30005KT 27/15 A3021 RMK A01 T02660147  RH  050%=      5-min Rain = 0
KGU1 132236Z 30004KT 27/15 A3021 RMK A01 T02670150  RH  051%=      5-min Rain = 0
KGU1 132237Z 29004KT 27/15 A3021 RMK A01 T02670150  RH  051%=      5-min Rain = 0
KGU1 132238Z 28004KT 27/15 A3021 RMK A01 T02670150  RH  051%=      5-min Rain = 0
KGU1 132239Z 29004KT 27/15 A3021 RMK A01 T02670147  RH  050%=      5-min Rain = 0
KGU1 132240Z 29004KT 27/15 A3021 RMK A01 T02680149  RH  050%=      5-min Rain = 0
KGU1 132241Z 29004KT 27/15 A3021 RMK A01 T02680148  RH  050%=      5-min Rain = 0
KGU1 132242Z 30005KT 27/15 A3021 RMK A01 T02680149  RH  050%=      5-min Rain = 0
KGU1 132243Z 29004KT 27/15 A3021 RMK A01 T02690148  RH  050%=      5-min Rain = 0
KGU1 132244Z 30003KT 27/15 A3021 RMK A01 T02680150  RH  051%=      5-min Rain = 0
KGU1 132245Z 30003KT 27/15 A3021 RMK A01 T02690149  RH  050%=      5-min Rain = 0
KGU1 132246Z 29003KT 27/15 A3021 RMK A01 T02700149  RH  050%=      5-min Rain = 0
KGU1 132247Z 30004KT 27/15 A3021 RMK A01 T02710148  RH  049%=      5-min Rain = 0
KGU1 132248Z 29004KT 27/15 A3021 RMK A01 T02710149  RH  049%=      5-min Rain = 0
KGU1 132249Z 29005KT 27/15 A3021 RMK A01 T02710153  RH  050%=      5-min Rain = 0
KGU1 132250Z 29006KT 27/15 A3021 RMK A01 T02700153  RH  051%=      5-min Rain = 0
KGU1 132251Z 29005KT 27/16 A3021 RMK A01 T02690157  RH  053%=      5-min Rain = 0
KGU1 132252Z 29005KT 27/16 A3021 RMK A01 T02680160  RH  054%=      5-min Rain = 0
KGU1 132253Z 29006KT 27/16 A3021 RMK A01 T02670159  RH  054%=      5-min Rain = 0
KGU1 132254Z 29005KT 27/16 A3021 RMK A01 T02670156  RH  053%=      5-min Rain = 0
KGU1 132255Z 29005KT 27/16 A3021 RMK A01 T02670156  RH  053%=      5-min Rain = 0
KGU1 132256Z 29006KT 27/15 A3021 RMK A01 T02670154  RH  052%=      5-min Rain = 0
KGU1 132257Z 29006KT 27/15 A3021 RMK A01 T02670154  RH  052%=      5-min Rain = 0
KGU1 132258Z 29006KT 27/16 A3021 RMK A01 T02670156  RH  053%=      5-min Rain = 0
KGU1 132259Z 29006KT 27/16 A3021 RMK A01 T02670156  RH  053%=      5-min Rain = 0
KGU1 132300Z 29007KT 27/15 A3021 RMK A01 T02660153  RH  052%=      5-min Rain = 0
KGU1 132301Z 29009KT 27/15 A3021 RMK A01 T02670153  RH  052%=      5-min Rain = 0
KGU1 132302Z 29010KT 27/15 A3021 RMK A01 T02670153  RH  052%=      5-min Rain = 0
KGU1 132303Z 30011KT 27/15 A3022 RMK A01 T02660154  RH  052%=      5-min Rain = 0
KGU1 132304Z 29010KT 27/16 A3022 RMK A01 T02660155  RH  053%=      5-min Rain = 0
KGU1 132305Z 30012KT 26/15 A3022 RMK A01 T02640154  RH  053%=      5-min Rain = 0
KGU1 132306Z 30011KT 26/16 A3022 RMK A01 T02640156  RH  054%=      5-min Rain = 0
KGU1 132307Z 30013KT 26/15 A3022 RMK A01 T02630154  RH  053%=      5-min Rain = 0
KGU1 132308Z 30014KT 26/15 A3022 RMK A01 T02630150  RH  052%=      5-min Rain = 0
KGU1 132309Z 29013KT 26/15 A3022 RMK A01 T02640147  RH  051%=      5-min Rain = 0
KGU1 132310Z 30014KT 27/15 A3022 RMK A01 T02650146  RH  050%=      5-min Rain = 0
KGU1 132311Z 30015KT 27/14 A3022 RMK A01 T02660142  RH  049%=      5-min Rain = 0
KGU1 132312Z 30014KT 27/14 A3022 RMK A01 T02660139  RH  047%=      5-min Rain = 0
KGU1 132313Z 29018KT 27/12 A3022 RMK A01 T02650120  RH  042%=      5-min Rain = 0
KGU1 132314Z 29019KT 27/11 A3023 RMK A01 T02650114  RH  040%=      5-min Rain = 0
KGU1 132315Z 29020KT 26/12 A3023 RMK A01 T02620116  RH  042%=      5-min Rain = 0
KGU1 132316Z 29018KT 26/12 A3023 RMK A01 T02580119  RH  043%=      5-min Rain = 0
KGU1 132317Z 29015KT 25/12 A3022 RMK A01 T02540122  RH  045%=      5-min Rain = 0
KGU1 132318Z 30021G26KT 25/12 A3023 RMK A01 T02510123  RH  047%=      5-min Rain = 0
KGU1 132319Z 30023G28KT 25/12 A3023 RMK A01 T02500122  RH  047%=      5-min Rain = 0
KGU1 132320Z 31019G26KT 25/13 A3023 RMK A01 T02470127  RH  049%=      5-min Rain = 0
KGU1 132321Z 30020KT 25/13 A3023 RMK A01 T02450128  RH  050%=      5-min Rain = 0
KGU1 132322Z 31020G25KT 24/13 A3023 RMK A01 T02430130  RH  051%=      5-min Rain = 0
KGU1 132323Z 31025KT 24/13 A3023 RMK A01 T02420125  RH  050%=      5-min Rain = 0
KGU1 132324Z 30018KT 24/13 A3023 RMK A01 T02410129  RH  052%=      5-min Rain = 0
KGU1 132325Z 30021G27KT 24/13 A3023 RMK A01 T02390130  RH  053%=      5-min Rain = 0
KGU1 132326Z 30020KT 24/13 A3023 RMK A01 T02380130  RH  053%=      5-min Rain = 0
KGU1 132327Z 30021G26KT 24/13 A3023 RMK A01 T02350134  RH  055%=      5-min Rain = 0
KGU1 132328Z 30023G28KT 23/14 A3023 RMK A01 T02300139  RH  059%=      5-min Rain = 0
KGU1 132329Z 31022G28KT 23/14 A3024 RMK A01 T02260138  RH  060%=      5-min Rain = 0
KGU1 132330Z 31024KT 23/13 A3024 RMK A01 T02260133  RH  058%=      5-min Rain = 0
KGU1 132331Z 31024KT 23/13 A3024 RMK A01 T02250134  RH  059%=      5-min Rain = 0
KGU1 132332Z 32019KT 22/14 A3024 RMK A01 T02230135  RH  060%=      5-min Rain = 0
KGU1 132333Z 32023G28KT 22/13 A3024 RMK A01 T02210134  RH  060%=      5-min Rain = 0
KGU1 132334Z 30022KT 22/13 A3024 RMK A01 T02230131  RH  058%=      5-min Rain = 0
KGU1 132335Z 30021KT 22/14 A3024 RMK A01 T02220136  RH  060%=      5-min Rain = 0
KGU1 132336Z 29021KT 22/14 A3024 RMK A01 T02200137  RH  062%=      5-min Rain = 0
KGU1 132337Z 29018KT 22/14 A3023 RMK A01 T02190138  RH  063%=      5-min Rain = 0
KGU1 132338Z 29016KT 22/14 A3023 RMK A01 T02170143  RH  065%=      5-min Rain = 0
KGU1 132339Z 30016G21KT 22/14 A3023 RMK A01 T02150140  RH  065%=      5-min Rain = 0
KGU1 132340Z 31021G27KT 22/13 A3024 RMK A01 T02220128  RH  058%=      5-min Rain = 0
KGU1 132341Z 31019G25KT 23/12 A3024 RMK A01 T02290124  RH  054%=      5-min Rain = 0
KGU1 132342Z 31020G26KT 23/12 A3024 RMK A01 T02340119  RH  050%=      5-min Rain = 0
KGU1 132343Z 30021KT 24/12 A3024 RMK A01 T02370121  RH  050%=      5-min Rain = 0
KGU1 132344Z 30021KT 24/12 A3024 RMK A01 T02360124  RH  051%=      5-min Rain = 0
KGU1 132345Z 30017KT 24/12 A3024 RMK A01 T02350124  RH  052%=      5-min Rain = 0
KGU1 132346Z 29015KT 24/12 A3024 RMK A01 T02370122  RH  050%=      5-min Rain = 0
KGU1 132347Z 28015KT 24/13 A3024 RMK A01 T02360128  RH  053%=      5-min Rain = 0
KGU1 132348Z 27017KT 23/14 A3024 RMK A01 T02300136  RH  058%=      5-min Rain = 0
KGU1 132349Z 28018KT 22/14 A3024 RMK A01 T02230135  RH  060%=      5-min Rain = 0
KGU1 132350Z 28018KT 22/13 A3024 RMK A01 T02200134  RH  061%=      5-min Rain = 0
KGU1 132351Z 28021KT 22/13 A3024 RMK A01 T02190133  RH  061%=      5-min Rain = 0
KGU1 132352Z 28016KT 22/13 A3024 RMK A01 T02200131  RH  060%=      5-min Rain = 0
KGU1 132353Z 31014KT 22/13 A3024 RMK A01 T02210128  RH  058%=      5-min Rain = 0
KGU1 132354Z 31016KT 23/12 A3024 RMK A01 T02280122  RH  053%=      5-min Rain = 0
KGU1 132355Z 32015KT 23/12 A3024 RMK A01 T02340120  RH  050%=      5-min Rain = 0
KGU1 132356Z 32014KT 24/12 A3024 RMK A01 T02400117  RH  048%=      5-min Rain = 0
KGU1 132357Z 30014KT 24/12 A3024 RMK A01 T02430118  RH  047%=      5-min Rain = 0
KGU1 132358Z 33019KT 24/12 A3025 RMK A01 T02430124  RH  049%=      5-min Rain = 0
KGU1 132359Z 33016G21KT 24/13 A3024 RMK A01 T02370127  RH  052%=      5-min Rain = 0
KGU1 140000Z 33018KT 24/13 A3025 RMK A01 T02350129  RH  054%=      5-min Rain = 0
KGU1 140001Z 34018KT 23/13 A3025 RMK A01 T02320129  RH  054%=      5-min Rain = 0
KGU1 140002Z 34016KT 23/13 A3025 RMK A01 T02340127  RH  053%=      5-min Rain = 0
KGU1 140003Z 33018KT 24/13 A3025 RMK A01 T02350129  RH  054%=      5-min Rain = 0
KGU1 140004Z 33015KT 24/13 A3025 RMK A01 T02350129  RH  053%=      5-min Rain = 0
KGU1 140005Z 33015KT 23/13 A3025 RMK A01 T02340132  RH  055%=      5-min Rain = 0
KGU1 140006Z 33017KT 23/14 A3025 RMK A01 T02310136  RH  058%=      5-min Rain = 0
KGU1 140007Z 33016KT 23/14 A3025 RMK A01 T02250138  RH  060%=      5-min Rain = 0
KGU1 140008Z 34014KT 22/14 A3025 RMK A01 T02230138  RH  061%=      5-min Rain = 0
KGU1 140009Z 33012KT 22/14 A3025 RMK A01 T02230139  RH  062%=      5-min Rain = 0
KGU1 140010Z 31010KT 22/14 A3025 RMK A01 T02240135  RH  059%=      5-min Rain = 0
KGU1 140011Z 30012KT 23/14 A3025 RMK A01 T02260141  RH  061%=      5-min Rain = 0
KGU1 140012Z 29015KT 22/14 A3025 RMK A01 T02220141  RH  063%=      5-min Rain = 0
KGU1 140013Z 30014KT 22/14 A3024 RMK A01 T02200138  RH  062%=      5-min Rain = 0
KGU1 140014Z 29013KT 22/14 A3024 RMK A01 T02190139  RH  063%=      5-min Rain = 0
KGU1 140015Z 29012KT 22/14 A3024 RMK A01 T02180140  RH  063%=      5-min Rain = 0
KGU1 140016Z 30011KT 22/14 A3024 RMK A01 T02180139  RH  063%=      5-min Rain = 0
KGU1 140017Z 29012KT 22/14 A3024 RMK A01 T02170142  RH  065%=      5-min Rain = 0
KGU1 140018Z 28011KT 22/14 A3023 RMK A01 T02150143  RH  066%=      5-min Rain = 0
KGU1 140019Z 29013KT 21/15 A3023 RMK A01 T02130145  RH  068%=      5-min Rain = 0
KGU1 140020Z 30014KT 21/14 A3023 RMK A01 T02110144  RH  068%=      5-min Rain = 0
KGU1 140021Z 30017KT 21/14 A3023 RMK A01 T02130141  RH  066%=      5-min Rain = 0
KGU1 140022Z 30017KT 22/14 A3023 RMK A01 T02160138  RH  064%=      5-min Rain = 0
KGU1 140023Z 29015KT 22/14 A3023 RMK A01 T02180138  RH  063%=      5-min Rain = 0
KGU1 140024Z 29015KT 22/14 A3023 RMK A01 T02200140  RH  063%=      5-min Rain = 0
KGU1 140025Z 29015KT 22/14 A3023 RMK A01 T02190142  RH  064%=      5-min Rain = 0
KGU1 140026Z 30016KT 22/14 A3022 RMK A01 T02180140  RH  064%=      5-min Rain = 0
KGU1 140027Z 29014KT 22/14 A3022 RMK A01 T02180142  RH  065%=      5-min Rain = 0
KGU1 140028Z 30015KT 22/14 A3022 RMK A01 T02180142  RH  065%=      5-min Rain = 0
KGU1 140029Z 30014KT 22/14 A3022 RMK A01 T02180140  RH  064%=      5-min Rain = 0
KGU1 140030Z 30014KT 22/14 A3022 RMK A01 T02180140  RH  064%=      5-min Rain = 0
KGU1 140031Z 30016KT 22/14 A3022 RMK A01 T02180140  RH  064%=      5-min Rain = 0
KGU1 140032Z 30017KT 22/14 A3022 RMK A01 T02190139  RH  063%=      5-min Rain = 0
KGU1 140033Z 30016KT 22/14 A3022 RMK A01 T02190139  RH  063%=      5-min Rain = 0
KGU1 140034Z 29016KT 22/14 A3022 RMK A01 T02200141  RH  064%=      5-min Rain = 0
KGU1 140035Z 30015KT 22/14 A3022 RMK A01 T02190144  RH  065%=      5-min Rain = 0
KGU1 140036Z 30018KT 22/14 A3022 RMK A01 T02190141  RH  064%=      5-min Rain = 0
KGU1 140037Z 30017KT 22/14 A3022 RMK A01 T02200139  RH  063%=      5-min Rain = 0
KGU1 140038Z 30016KT 22/14 A3022 RMK A01 T02210140  RH  063%=      5-min Rain = 0
KGU1 140039Z 30016KT 22/14 A3022 RMK A01 T02210140  RH  063%=      5-min Rain = 0
KGU1 140040Z 30015KT 22/14 A3022 RMK A01 T02210141  RH  063%=      5-min Rain = 0
KGU1 140041Z 30017KT 22/14 A3022 RMK A01 T02210139  RH  062%=      5-min Rain = 0
KGU1 140042Z 30016KT 22/14 A3022 RMK A01 T02230138  RH  061%=      5-min Rain = 0
KGU1 140043Z 30016KT 23/14 A3022 RMK A01 T02250136  RH  059%=      5-min Rain = 0
KGU1 140044Z 30017KT 23/13 A3022 RMK A01 T02270134  RH  058%=      5-min Rain = 0
KGU1 140045Z 30017KT 23/14 A3022 RMK A01 T02290135  RH  058%=      5-min Rain = 0
KGU1 140046Z 30015KT 23/14 A3022 RMK A01 T02280137  RH  059%=      5-min Rain = 0
KGU1 140047Z 29015KT 23/14 A3022 RMK A01 T02280136  RH  059%=      5-min Rain = 0
KGU1 140048Z 29013KT 23/13 A3022 RMK A01 T02290134  RH  057%=      5-min Rain = 0
KGU1 140049Z 30015KT 23/13 A3022 RMK A01 T02310132  RH  056%=      5-min Rain = 0
KGU1 140050Z 30015KT 23/13 A3022 RMK A01 T02330130  RH  054%=      5-min Rain = 0
KGU1 140051Z 30014KT 23/13 A3022 RMK A01 T02340129  RH  054%=      5-min Rain = 0
KGU1 140052Z 29013KT 24/13 A3022 RMK A01 T02360129  RH  053%=      5-min Rain = 0
KGU1 140053Z 29012KT 24/13 A3022 RMK A01 T02360130  RH  053%=      5-min Rain = 0
KGU1 140054Z 29013KT 24/13 A3022 RMK A01 T02360131  RH  054%=      5-min Rain = 0
KGU1 140055Z 29012KT 24/13 A3022 RMK A01 T02360131  RH  054%=      5-min Rain = 0
KGU1 140056Z 29014KT 24/13 A3022 RMK A01 T02360130  RH  054%=      5-min Rain = 0
KGU1 140057Z 29013KT 24/13 A3022 RMK A01 T02370128  RH  052%=      5-min Rain = 0
KGU1 140058Z 29014KT 24/13 A3022 RMK A01 T02370129  RH  053%=      5-min Rain = 0
KGU1 140059Z 29015KT 24/13 A3022 RMK A01 T02370128  RH  052%=      5-min Rain = 0
KGU1 140100Z 29013KT 24/13 A3022 RMK A01 T02380128  RH  052%=      5-min Rain = 0
KGU1 140101Z 29014KT 24/13 A3022 RMK A01 T02380127  RH  052%=      5-min Rain = 0
KGU1 140102Z 29013KT 24/13 A3022 RMK A01 T02390128  RH  052%=      5-min Rain = 0
KGU1 140103Z 29012KT 24/13 A3022 RMK A01 T02380129  RH  052%=      5-min Rain = 0
KGU1 140104Z 29011KT 24/13 A3022 RMK A01 T02380129  RH  052%=      5-min Rain = 0
KGU1 140105Z 29013KT 24/13 A3022 RMK A01 T02380129  RH  052%=      5-min Rain = 0
KGU1 140106Z 29014KT 24/13 A3021 RMK A01 T02390125  RH  051%=      5-min Rain = 0
KGU1 140107Z 29014KT 24/12 A3021 RMK A01 T02410124  RH  050%=      5-min Rain = 0
KGU1 140108Z 29013KT 24/12 A3021 RMK A01 T02420122  RH  049%=      5-min Rain = 0
KGU1 140109Z 30009KT 24/13 A3021 RMK A01 T02430125  RH  049%=      5-min Rain = 0
KGU1 140110Z 29012KT 24/13 A3021 RMK A01 T02420126  RH  050%=      5-min Rain = 0
KGU1 140111Z 29012KT 24/13 A3021 RMK A01 T02420126  RH  050%=      5-min Rain = 0
KGU1 140112Z 29013KT 24/13 A3021 RMK A01 T02410125  RH  050%=      5-min Rain = 0
KGU1 140113Z 29012KT 24/13 A3021 RMK A01 T02410126  RH  050%=      5-min Rain = 0
KGU1 140114Z 30012KT 24/12 A3022 RMK A01 T02420123  RH  049%=      5-min Rain = 0
KGU1 140115Z 30010KT 24/12 A3022 RMK A01 T02430122  RH  048%=      5-min Rain = 0
KGU1 140116Z 29010KT 24/12 A3022 RMK A01 T02440122  RH  048%=      5-min Rain = 0
KGU1 140117Z 30010KT 24/12 A3022 RMK A01 T02440124  RH  049%=      5-min Rain = 0
KGU1 140118Z 30010KT 24/12 A3022 RMK A01 T02430122  RH  049%=      5-min Rain = 0
KGU1 140119Z 30007KT 25/11 A3022 RMK A01 T02470114  RH  045%=      5-min Rain = 0
KGU1 140120Z 30007KT 25/12 A3022 RMK A01 T02490120  RH  046%=      5-min Rain = 0
KGU1 140121Z 30009KT 25/12 A3022 RMK A01 T02470122  RH  047%=      5-min Rain = 0
KGU1 140122Z 31007KT 25/12 A3022 RMK A01 T02460121  RH  047%=      5-min Rain = 0
KGU1 140123Z 31009KT 25/12 A3022 RMK A01 T02450122  RH  048%=      5-min Rain = 0
KGU1 140124Z 31007KT 25/12 A3023 RMK A01 T02450119  RH  047%=      5-min Rain = 0
KGU1 140125Z 31007KT 25/12 A3022 RMK A01 T02450120  RH  047%=      5-min Rain = 0
KGU1 140126Z 31006KT 25/12 A3023 RMK A01 T02460118  RH  046%=      5-min Rain = 0
KGU1 140127Z 03005G10KT 25/11 A3023 RMK A01 T02480114  RH  045%=      5-min Rain = 0
KGU1 140128Z 04010KT 25/11 A3023 RMK A01 T02510112  RH  043%=      5-min Rain = 0
KGU1 140129Z 03010KT 26/11 A3023 RMK A01 T02550110  RH  042%=      5-min Rain = 0
KGU1 140130Z 02011KT 26/11 A3023 RMK A01 T02580109  RH  041%=      5-min Rain = 0
KGU1 140131Z 02012KT 26/11 A3023 RMK A01 T02590114  RH  042%=      5-min Rain = 0
KGU1 140132Z 03013KT 26/12 A3024 RMK A01 T02590116  RH  043%=      5-min Rain = 0
KGU1 140133Z 03014KT 26/12 A3024 RMK A01 T02580117  RH  043%=      5-min Rain = 0
KGU1 140134Z 03015KT 26/12 A3024 RMK A01 T02580117  RH  043%=      5-min Rain = 0
KGU1 140135Z 03015KT 26/12 A3024 RMK A01 T02580116  RH  043%=      5-min Rain = 0
KGU1 140136Z 03014KT 26/12 A3024 RMK A01 T02580115  RH  042%=      5-min Rain = 0
KGU1 140137Z 02013KT 26/11 A3024 RMK A01 T02590114  RH  042%=      5-min Rain = 0
KGU1 140138Z 03012KT 26/12 A3024 RMK A01 T02600116  RH  042%=      5-min Rain = 0
KGU1 140139Z 02011KT 26/12 A3024 RMK A01 T02590117  RH  043%=      5-min Rain = 0
KGU1 140140Z 02011KT 26/12 A3024 RMK A01 T02580118  RH  043%=      5-min Rain = 0
KGU1 140141Z 02009KT 26/12 A3024 RMK A01 T02570119  RH  044%=      5-min Rain = 0
KGU1 140142Z 02009KT 26/12 A3024 RMK A01 T02560119  RH  044%=      5-min Rain = 0
KGU1 140143Z 02008KT 26/12 A3023 RMK A01 T02550120  RH  045%=      5-min Rain = 0
KGU1 140144Z 02009KT 26/12 A3023 RMK A01 T02550120  RH  045%=      5-min Rain = 0
KGU1 140145Z 02009KT 26/12 A3023 RMK A01 T02550118  RH  044%=      5-min Rain = 0
KGU1 140146Z 02009KT 26/12 A3023 RMK A01 T02550118  RH  044%=      5-min Rain = 0
KGU1 140147Z 03007KT 26/12 A3023 RMK A01 T02550120  RH  045%=      5-min Rain = 0
KGU1 140148Z 03007KT 25/12 A3023 RMK A01 T02540121  RH  045%=      5-min Rain = 0
KGU1 140149Z 03008KT 25/12 A3023 RMK A01 T02530121  RH  046%=      5-min Rain = 0
KGU1 140150Z 03007KT 25/12 A3023 RMK A01 T02520121  RH  046%=      5-min Rain = 0
KGU1 140151Z 04006KT 25/12 A3023 RMK A01 T02520122  RH  046%=      5-min Rain = 0
KGU1 140152Z 04007KT 25/12 A3023 RMK A01 T02510122  RH  046%=      5-min Rain = 0
KGU1 140153Z 03005KT 25/12 A3023 RMK A01 T02510122  RH  046%=      5-min Rain = 0
KGU1 140154Z 03006KT 25/12 A3023 RMK A01 T02500122  RH  047%=      5-min Rain = 0
KGU1 140155Z 03007KT 25/12 A3023 RMK A01 T02490122  RH  047%=      5-min Rain = 0
KGU1 140156Z 02007KT 25/12 A3023 RMK A01 T02490122  RH  047%=      5-min Rain = 0
KGU1 140157Z 02006KT 25/12 A3023 RMK A01 T02490122  RH  047%=      5-min Rain = 0
KGU1 140158Z 02007KT 25/12 A3023 RMK A01 T02490122  RH  047%=      5-min Rain = 0
KGU1 140159Z 02007KT 25/12 A3023 RMK A01 T02490122  RH  047%=      5-min Rain = 0
KGU1 140200Z 01006KT 25/12 A3023 RMK A01 T02490122  RH  047%=      5-min Rain = 0
KGU1 140201Z 01006KT 25/12 A3023 RMK A01 T02490122  RH  047%=      5-min Rain = 0
KGU1 140202Z 01005KT 25/12 A3023 RMK A01 T02490122  RH  047%=      5-min Rain = 0
KGU1 140203Z 00005KT 25/12 A3023 RMK A01 T02480122  RH  047%=      5-min Rain = 0
KGU1 140204Z 01006KT 25/12 A3023 RMK A01 T02470122  RH  047%=      5-min Rain = 0
KGU1 140205Z 01006KT 25/12 A3023 RMK A01 T02480121  RH  047%=      5-min Rain = 0
KGU1 140206Z 01005KT 25/12 A3023 RMK A01 T02480122  RH  047%=      5-min Rain = 0
KGU1 140207Z 01006KT 25/12 A3023 RMK A01 T02480122  RH  047%=      5-min Rain = 0
KGU1 140208Z 01005KT 25/12 A3023 RMK A01 T02480121  RH  047%=      5-min Rain = 0
KGU1 140209Z 02006KT 25/12 A3023 RMK A01 T02480122  RH  047%=      5-min Rain = 0
KGU1 140210Z 01004KT 25/12 A3023 RMK A01 T02480122  RH  047%=      5-min Rain = 0
KGU1 140211Z 02004KT 25/12 A3024 RMK A01 T02470123  RH  047%=      5-min Rain = 0
KGU1 140212Z 01003KT 25/12 A3024 RMK A01 T02470122  RH  047%=      5-min Rain = 0
KGU1 140213Z 02003KT 25/12 A3024 RMK A01 T02470121  RH  047%=      5-min Rain = 0
KGU1 140214Z 03004KT 25/12 A3024 RMK A01 T02470121  RH  047%=      5-min Rain = 0
KGU1 140215Z 02004KT 25/12 A3024 RMK A01 T02470120  RH  047%=      5-min Rain = 0
KGU1 140216Z 03004KT 25/12 A3024 RMK A01 T02470121  RH  047%=      5-min Rain = 0
KGU1 140217Z 03004KT 25/12 A3024 RMK A01 T02470119  RH  046%=      5-min Rain = 0
KGU1 140218Z 03004KT 25/12 A3024 RMK A01 T02470119  RH  046%=      5-min Rain = 0
KGU1 140219Z 03005KT 25/12 A3024 RMK A01 T02470119  RH  046%=      5-min Rain = 0
KGU1 140220Z 03005KT 25/12 A3024 RMK A01 T02470118  RH  046%=      5-min Rain = 0
KGU1 140221Z 03005KT 25/12 A3024 RMK A01 T02470119  RH  046%=      5-min Rain = 0
KGU1 140222Z 03006KT 25/12 A3024 RMK A01 T02470119  RH  047%=      5-min Rain = 0
KGU1 140223Z 03005KT 25/12 A3024 RMK A01 T02470119  RH  046%=      5-min Rain = 0
KGU1 140224Z 03005KT 25/12 A3024 RMK A01 T02470118  RH  046%=      5-min Rain = 0
KGU1 140225Z 03007KT 25/12 A3024 RMK A01 T02480117  RH  046%=      5-min Rain = 0
KGU1 140226Z 03005KT 25/12 A3024 RMK A01 T02490117  RH  045%=      5-min Rain = 0
KGU1 140227Z 03005KT 25/12 A3024 RMK A01 T02500117  RH  045%=      5-min Rain = 0
KGU1 140228Z 03006KT 25/12 A3024 RMK A01 T02500118  RH  045%=      5-min Rain = 0
KGU1 140229Z 03006KT 25/12 A3024 RMK A01 T02500118  RH  045%=      5-min Rain = 0
KGU1 140230Z 04006KT 25/12 A3024 RMK A01 T02490119  RH  046%=      5-min Rain = 0
KGU1 140231Z 05006KT 25/12 A3025 RMK A01 T02480119  RH  046%=      5-min Rain = 0
KGU1 140232Z 05007KT 25/12 A3025 RMK A01 T02480119  RH  046%=      5-min Rain = 0
KGU1 140233Z 06006KT 25/12 A3025 RMK A01 T02480120  RH  046%=      5-min Rain = 0
KGU1 140234Z 06008KT 25/12 A3025 RMK A01 T02480119  RH  046%=      5-min Rain = 0
KGU1 140235Z 07009KT 25/12 A3025 RMK A01 T02490119  RH  046%=      5-min Rain = 0
KGU1 140236Z 08012KT 25/12 A3026 RMK A01 T02500119  RH  046%=      5-min Rain = 0
KGU1 140237Z 08013KT 25/12 A3026 RMK A01 T02500120  RH  046%=      5-min Rain = 0
KGU1 140238Z 08013KT 25/12 A3026 RMK A01 T02500121  RH  046%=      5-min Rain = 0
KGU1 140239Z 08013KT 25/12 A3026 RMK A01 T02490121  RH  047%=      5-min Rain = 0
KGU1 140240Z 09014KT 25/12 A3026 RMK A01 T02480124  RH  048%=      5-min Rain = 0
KGU1 140241Z 09016KT 25/13 A3026 RMK A01 T02460126  RH  049%=      5-min Rain = 0
KGU1 140242Z 08012KT 24/13 A3027 RMK A01 T02440128  RH  050%=      5-min Rain = 0
KGU1 140243Z 07009KT 24/13 A3027 RMK A01 T02430128  RH  051%=      5-min Rain = 0
KGU1 140244Z 06010KT 24/13 A3027 RMK A01 T02420128  RH  051%=      5-min Rain = 0
KGU1 140245Z 06008KT 24/13 A3027 RMK A01 T02400128  RH  051%=      5-min Rain = 0
KGU1 140246Z 05010KT 24/13 A3027 RMK A01 T02390127  RH  052%=      5-min Rain = 0
KGU1 140247Z 05011KT 24/13 A3027 RMK A01 T02390127  RH  052%=      5-min Rain = 0
KGU1 140248Z 06009KT 24/13 A3027 RMK A01 T02380127  RH  052%=      5-min Rain = 0
KGU1 140249Z 07010KT 24/13 A3028 RMK A01 T02370126  RH  052%=      5-min Rain = 0
KGU1 140250Z 07011KT 24/13 A3028 RMK A01 T02370126  RH  052%=      5-min Rain = 0
KGU1 140251Z 08011KT 24/13 A3028 RMK A01 T02360128  RH  053%=      5-min Rain = 0
KGU1 140252Z 07009KT 24/13 A3028 RMK A01 T02350129  RH  053%=      5-min Rain = 0
KGU1 140253Z 06009KT 23/13 A3028 RMK A01 T02340129  RH  053%=      5-min Rain = 0
KGU1 140254Z 05007KT 23/13 A3028 RMK A01 T02340130  RH  054%=      5-min Rain = 0
KGU1 140255Z 04009KT 23/13 A3028 RMK A01 T02330130  RH  054%=      5-min Rain = 0
KGU1 140256Z 04011KT 23/13 A3028 RMK A01 T02320131  RH  055%=      5-min Rain = 0
KGU1 140257Z 03011KT 23/13 A3028 RMK A01 T02320131  RH  055%=      5-min Rain = 0
KGU1 140258Z 03010KT 23/13 A3028 RMK A01 T02320131  RH  055%=      5-min Rain = 0
KGU1 140259Z 03009KT 23/13 A3028 RMK A01 T02310131  RH  055%=      5-min Rain = 0
KGU1 140300Z 04008KT 23/13 A3028 RMK A01 T02300131  RH  056%=      5-min Rain = 0
KGU1 140301Z 04010KT 23/13 A3029 RMK A01 T02300130  RH  055%=      5-min Rain = 0
KGU1 140302Z 04011KT 23/13 A3029 RMK A01 T02300130  RH  055%=      5-min Rain = 0
KGU1 140303Z 04009KT 23/13 A3029 RMK A01 T02310130  RH  055%=      5-min Rain = 0
KGU1 140304Z 04008KT 23/13 A3029 RMK A01 T02310130  RH  055%=      5-min Rain = 0
KGU1 140305Z 04010KT 23/13 A3029 RMK A01 T02300130  RH  055%=      5-min Rain = 0
KGU1 140306Z 03009KT 23/13 A3029 RMK A01 T02300130  RH  056%=      5-min Rain = 0
KGU1 140307Z 03008KT 23/13 A3029 RMK A01 T02290131  RH  056%=      5-min Rain = 0
KGU1 140308Z 03009KT 23/13 A3029 RMK A01 T02290130  RH  056%=      5-min Rain = 0
KGU1 140309Z 02009KT 23/13 A3029 RMK A01 T02290131  RH  056%=      5-min Rain = 0
KGU1 140310Z 02009KT 23/13 A3028 RMK A01 T02280131  RH  056%=      5-min Rain = 0
KGU1 140311Z 01010KT 23/13 A3028 RMK A01 T02280131  RH  056%=      5-min Rain = 0
KGU1 140312Z 02008KT 23/13 A3028 RMK A01 T02280130  RH  056%=      5-min Rain = 0
KGU1 140313Z 02008KT 23/13 A3028 RMK A01 T02280130  RH  056%=      5-min Rain = 0
KGU1 140314Z 03008KT 23/13 A3029 RMK A01 T02280130  RH  056%=      5-min Rain = 0
KGU1 140315Z 04007KT 23/13 A3029 RMK A01 T02280130  RH  056%=      5-min Rain = 0
KGU1 140316Z 04007KT 23/13 A3028 RMK A01 T02270130  RH  057%=      5-min Rain = 0
KGU1 140317Z 04008KT 23/13 A3029 RMK A01 T02270130  RH  057%=      5-min Rain = 0
KGU1 140318Z 04007KT 23/13 A3029 RMK A01 T02270130  RH  056%=      5-min Rain = 0
KGU1 140319Z 04007KT 23/13 A3029 RMK A01 T02270130  RH  057%=      5-min Rain = 0
KGU1 140320Z 04008KT 23/13 A3028 RMK A01 T02260130  RH  057%=      5-min Rain = 0
KGU1 140321Z 04008KT 23/13 A3028 RMK A01 T02270129  RH  056%=      5-min Rain = 0
KGU1 140322Z 03007KT 23/13 A3028 RMK A01 T02270130  RH  056%=      5-min Rain = 0
KGU1 140323Z 02011KT 23/13 A3028 RMK A01 T02270128  RH  056%=      5-min Rain = 0
KGU1 140324Z 01009KT 23/13 A3028 RMK A01 T02290126  RH  054%=      5-min Rain = 0
KGU1 140325Z 01008KT 23/13 A3028 RMK A01 T02310126  RH  054%=      5-min Rain = 0
KGU1 140326Z 01009KT 23/13 A3028 RMK A01 T02320125  RH  053%=      5-min Rain = 0
KGU1 140327Z 01011KT 23/13 A3028 RMK A01 T02330125  RH  053%=      5-min Rain = 0
KGU1 140328Z 02011KT 23/12 A3028 RMK A01 T02340124  RH  052%=      5-min Rain = 0
KGU1 140329Z 02009KT 24/12 A3028 RMK A01 T02350124  RH  052%=      5-min Rain = 0.01
KGU1 140330Z 02011KT 24/12 A3028 RMK A01 T02350124  RH  051%=      5-min Rain = 0
KGU1 140331Z 02009KT 24/12 A3028 RMK A01 T02350123  RH  051%=      5-min Rain = 0
KGU1 140332Z 02010KT 24/12 A3028 RMK A01 T02350122  RH  051%=      5-min Rain = 0
KGU1 140333Z 01009KT 24/12 A3028 RMK A01 T02350123  RH  051%=      5-min Rain = 0
KGU1 140334Z 02010KT 24/12 A3028 RMK A01 T02350123  RH  051%=      5-min Rain = 0
KGU1 140335Z 01008KT 24/12 A3028 RMK A01 T02350123  RH  051%=      5-min Rain = 0
KGU1 140336Z 01010KT 23/12 A3028 RMK A01 T02340124  RH  052%=      5-min Rain = 0
KGU1 140337Z 01012KT 24/12 A3028 RMK A01 T02350123  RH  051%=      5-min Rain = 0
KGU1 140338Z 01011KT 24/12 A3029 RMK A01 T02350123  RH  051%=      5-min Rain = 0
KGU1 140339Z 01011KT 24/12 A3029 RMK A01 T02350123  RH  051%=      5-min Rain = 0
KGU1 140340Z 01011KT 24/12 A3028 RMK A01 T02350123  RH  051%=      5-min Rain = 0
KGU1 140341Z 36010KT 24/12 A3028 RMK A01 T02350123  RH  051%=      5-min Rain = 0
KGU1 140342Z 36011KT 24/12 A3028 RMK A01 T02350123  RH  051%=      5-min Rain = 0
KGU1 140343Z 36009KT 24/12 A3028 RMK A01 T02350123  RH  051%=      5-min Rain = 0
KGU1 140344Z 36011KT 24/12 A3028 RMK A01 T02360121  RH  050%=      5-min Rain = 0
KGU1 140345Z 00012KT 24/12 A3028 RMK A01 T02380119  RH  049%=      5-min Rain = 0
KGU1 140346Z 01012KT 24/12 A3028 RMK A01 T02400118  RH  048%=      5-min Rain = 0
KGU1 140347Z 01010KT 24/12 A3028 RMK A01 T02420118  RH  047%=      5-min Rain = 0
KGU1 140348Z 01011KT 24/12 A3028 RMK A01 T02430117  RH  047%=      5-min Rain = 0
KGU1 140349Z 01009KT 24/12 A3028 RMK A01 T02430118  RH  047%=      5-min Rain = 0
KGU1 140350Z 01010KT 24/12 A3028 RMK A01 T02430119  RH  047%=      5-min Rain = 0
KGU1 140351Z 02011KT 24/12 A3028 RMK A01 T02420117  RH  047%=      5-min Rain = 0
KGU1 140352Z 03011KT 24/12 A3028 RMK A01 T02430116  RH  047%=      5-min Rain = 0
KGU1 140353Z 03010KT 25/12 A3028 RMK A01 T02450116  RH  046%=      5-min Rain = 0
KGU1 140354Z 02011KT 25/12 A3028 RMK A01 T02450116  RH  046%=      5-min Rain = 0
KGU1 140355Z 02010KT 25/12 A3028 RMK A01 T02450115  RH  046%=      5-min Rain = 0
KGU1 140356Z 02008KT 25/12 A3028 RMK A01 T02450116  RH  046%=      5-min Rain = 0
KGU1 140357Z 01008KT 24/12 A3028 RMK A01 T02430117  RH  047%=      5-min Rain = 0
KGU1 140358Z 02009KT 24/12 A3028 RMK A01 T02410117  RH  048%=      5-min Rain = 0
KGU1 140359Z 02008KT 24/12 A3028 RMK A01 T02410115  RH  047%=      5-min Rain = 0
KGU1 140400Z 02009KT 24/11 A3028 RMK A01 T02420114  RH  046%=      5-min Rain = 0
KGU1 140401Z 02008KT 24/11 A3028 RMK A01 T02420114  RH  046%=      5-min Rain = 0
KGU1 140402Z 02008KT 24/11 A3028 RMK A01 T02420114  RH  046%=      5-min Rain = 0
KGU1 140403Z 02007KT 24/11 A3028 RMK A01 T02410114  RH  046%=      5-min Rain = 0
KGU1 140404Z 01005KT 24/12 A3028 RMK A01 T02400115  RH  047%=      5-min Rain = 0
KGU1 140405Z 01005KT 24/12 A3028 RMK A01 T02390115  RH  047%=      5-min Rain = 0
KGU1 140406Z 01006KT 24/12 A3028 RMK A01 T02380115  RH  048%=      5-min Rain = 0
KGU1 140407Z 00007KT 24/11 A3028 RMK A01 T02370114  RH  048%=      5-min Rain = 0
KGU1 140408Z 36008KT 24/11 A3028 RMK A01 T02370113  RH  047%=      5-min Rain = 0
KGU1 140409Z 35007KT 24/11 A3028 RMK A01 T02380111  RH  046%=      5-min Rain = 0
KGU1 140410Z 35008KT 24/11 A3028 RMK A01 T02400109  RH  045%=      5-min Rain = 0
KGU1 140411Z 35008KT 24/11 A3027 RMK A01 T02420108  RH  044%=      5-min Rain = 0
KGU1 140412Z 35008KT 24/11 A3027 RMK A01 T02430107  RH  044%=      5-min Rain = 0
KGU1 140413Z 36007KT 24/11 A3027 RMK A01 T02440106  RH  043%=      5-min Rain = 0
KGU1 140414Z 35008KT 24/11 A3027 RMK A01 T02440106  RH  043%=      5-min Rain = 0
KGU1 140415Z 35008KT 24/10 A3028 RMK A01 T02440104  RH  043%=      5-min Rain = 0
KGU1 140416Z 35006KT 25/10 A3028 RMK A01 T02450104  RH  042%=      5-min Rain = 0
KGU1 140417Z 36005KT 24/11 A3028 RMK A01 T02440105  RH  043%=      5-min Rain = 0
KGU1 140418Z 35006KT 24/10 A3028 RMK A01 T02430103  RH  043%=      5-min Rain = 0
KGU1 140419Z 34007KT 24/10 A3028 RMK A01 T02440100  RH  041%=      5-min Rain = 0
KGU1 140420Z 35007KT 24/10 A3028 RMK A01 T02440098  RH  041%=      5-min Rain = 0
KGU1 140421Z 35007KT 25/10 A3028 RMK A01 T02450097  RH  041%=      5-min Rain = 0
KGU1 140422Z 34006KT 25/10 A3027 RMK A01 T02450097  RH  040%=      5-min Rain = 0
KGU1 140423Z 34006KT 24/10 A3027 RMK A01 T02440097  RH  041%=      5-min Rain = 0
KGU1 140424Z 34006KT 24/10 A3027 RMK A01 T02430097  RH  041%=      5-min Rain = 0
KGU1 140425Z 34006KT 24/10 A3027 RMK A01 T02430096  RH  040%=      5-min Rain = 0
KGU1 140426Z 34006KT 24/09 A3027 RMK A01 T02430094  RH  040%=      5-min Rain = 0
KGU1 140427Z 34005KT 24/09 A3027 RMK A01 T02430093  RH  040%=      5-min Rain = 0
KGU1 140428Z 34005KT 24/09 A3027 RMK A01 T02420094  RH  040%=      5-min Rain = 0
KGU1 140429Z 06002KT 24/10 A3027 RMK A01 T02420097  RH  041%=      5-min Rain = 0
KGU1 140430Z 06001KT 24/10 A3027 RMK A01 T02410098  RH  042%=      5-min Rain = 0
KGU1 140431Z 02001KT 24/10 A3027 RMK A01 T02410097  RH  041%=      5-min Rain = 0
KGU1 140432Z 04001KT 24/10 A3027 RMK A01 T02410097  RH  041%=      5-min Rain = 0
KGU1 140433Z 06002KT 24/10 A3027 RMK A01 T02400097  RH  041%=      5-min Rain = 0
KGU1 140434Z 03002KT 24/10 A3027 RMK A01 T02400098  RH  042%=      5-min Rain = 0
KGU1 140435Z 05003KT 24/10 A3027 RMK A01 T02400098  RH  042%=      5-min Rain = 0
KGU1 140436Z 06003KT 24/10 A3027 RMK A01 T02410098  RH  042%=      5-min Rain = 0
KGU1 140437Z 05004KT 24/10 A3027 RMK A01 T02420097  RH  041%=      5-min Rain = 0
KGU1 140438Z 05003KT 24/10 A3027 RMK A01 T02440096  RH  040%=      5-min Rain = 0
KGU1 140439Z 03003KT 25/10 A3027 RMK A01 T02450097  RH  040%=      5-min Rain = 0
KGU1 140440Z 02002KT 24/10 A3027 RMK A01 T02440097  RH  040%=      5-min Rain = 0
KGU1 140441Z 01002KT 24/10 A3027 RMK A01 T02430097  RH  041%=      5-min Rain = 0
KGU1 140442Z 00002KT 24/10 A3027 RMK A01 T02420097  RH  041%=      5-min Rain = 0
KGU1 140443Z 00001KT 24/10 A3027 RMK A01 T02410098  RH  042%=      5-min Rain = 0
KGU1 140444Z 00001KT 24/10 A3027 RMK A01 T02400099  RH  042%=      5-min Rain = 0
KGU1 140445Z 00001KT 24/10 A3027 RMK A01 T02400098  RH  042%=      5-min Rain = 0
KGU1 140446Z 00000KT 24/10 A3027 RMK A01 T02390097  RH  042%=      5-min Rain = 0
KGU1 140447Z 00000KT 24/10 A3027 RMK A01 T02380099  RH  043%=      5-min Rain = 0
KGU1 140448Z 00001KT 24/10 A3027 RMK A01 T02370101  RH  044%=      5-min Rain = 0
KGU1 140449Z 00001KT 24/10 A3027 RMK A01 T02350100  RH  044%=      5-min Rain = 0
KGU1 140450Z 00001KT 23/10 A3027 RMK A01 T02340101  RH  044%=      5-min Rain = 0
KGU1 140451Z 32003KT 23/10 A3027 RMK A01 T02330102  RH  045%=      5-min Rain = 0
KGU1 140452Z 33005KT 23/11 A3027 RMK A01 T02310105  RH  047%=      5-min Rain = 0
KGU1 140453Z 33005KT 23/11 A3026 RMK A01 T02280105  RH  047%=      5-min Rain = 0
KGU1 140454Z 33005KT 23/11 A3026 RMK A01 T02280105  RH  047%=      5-min Rain = 0
KGU1 140455Z 33004KT 23/11 A3026 RMK A01 T02290106  RH  047%=      5-min Rain = 0
KGU1 140456Z 33004KT 23/11 A3026 RMK A01 T02280107  RH  048%=      5-min Rain = 0
KGU1 140457Z 31005KT 23/11 A3026 RMK A01 T02270109  RH  049%=      5-min Rain = 0
KGU1 140458Z 31006KT 23/11 A3026 RMK A01 T02250110  RH  050%=      5-min Rain = 0
KGU1 140459Z 31006KT 22/11 A3026 RMK A01 T02230109  RH  050%=      5-min Rain = 0

Page generated in 0.0715 seconds.